<?xml version="1.0" encoding="UTF-8" standalone="no" ?>
<gpx xmlns="http://www.topografix.com/GPX/1/1" xmlns:xsi="http://www.w3.org/2001/XMLSchema-instance" xsi:schemaLocation="http://www.topografix.com/GPX/1/1 http://www.topografix.com/GPX/1/1/gpx.xsd" version="1.1" creator="VisuGPX - https://www.visugpx.com">
  <metadata>
    <name>Rando vin chaud St Pierre d\'Argençon</name>
    <desc><![CDATA[Parking prés du pont a l\'ouest de St Pierre suivre les chemins  vers St Martin et le Serre de Praoudi qui permettent de réaliser une boucle de 8 km pour revenir au village]]></desc>
  </metadata>
  <trk>
    <name><![CDATA[St Pierre d'Argençonl: 03 JAN 2013 09:55]]></name>
    <trkseg>
      <trkpt lat="44.51916" lon="5.69498">
        <ele>766.79</ele>
        <time>2013-01-03T08:55:43Z</time>
      </trkpt>
      <trkpt lat="44.51914" lon="5.69492">
        <ele>766.79</ele>
        <time>2013-01-03T08:56:01Z</time>
      </trkpt>
      <trkpt lat="44.51913" lon="5.69498">
        <ele>766.79</ele>
        <time>2013-01-03T08:56:16Z</time>
      </trkpt>
      <trkpt lat="44.51915" lon="5.69502">
        <ele>766.31</ele>
        <time>2013-01-03T08:56:36Z</time>
      </trkpt>
      <trkpt lat="44.51915" lon="5.69499">
        <ele>766.79</ele>
        <time>2013-01-03T08:56:54Z</time>
      </trkpt>
      <trkpt lat="44.51914" lon="5.69502">
        <ele>767.27</ele>
        <time>2013-01-03T08:57:09Z</time>
      </trkpt>
      <trkpt lat="44.51917" lon="5.69501">
        <ele>767.27</ele>
        <time>2013-01-03T08:57:20Z</time>
      </trkpt>
      <trkpt lat="44.51919" lon="5.69496">
        <ele>766.31</ele>
        <time>2013-01-03T08:57:39Z</time>
      </trkpt>
      <trkpt lat="44.51916" lon="5.69492">
        <ele>765.83</ele>
        <time>2013-01-03T08:58:06Z</time>
      </trkpt>
      <trkpt lat="44.51918" lon="5.69495">
        <ele>765.83</ele>
        <time>2013-01-03T08:58:27Z</time>
      </trkpt>
      <trkpt lat="44.51919" lon="5.69496">
        <ele>767.27</ele>
        <time>2013-01-03T08:58:42Z</time>
      </trkpt>
      <trkpt lat="44.51918" lon="5.69498">
        <ele>767.27</ele>
        <time>2013-01-03T08:58:59Z</time>
      </trkpt>
      <trkpt lat="44.51918" lon="5.695">
        <ele>767.27</ele>
        <time>2013-01-03T08:59:13Z</time>
      </trkpt>
      <trkpt lat="44.51915" lon="5.69498">
        <ele>767.27</ele>
        <time>2013-01-03T08:59:30Z</time>
      </trkpt>
      <trkpt lat="44.51914" lon="5.69496">
        <ele>767.27</ele>
        <time>2013-01-03T08:59:44Z</time>
      </trkpt>
      <trkpt lat="44.51915" lon="5.69494">
        <ele>766.79</ele>
        <time>2013-01-03T09:00:14Z</time>
      </trkpt>
      <trkpt lat="44.51909" lon="5.69498">
        <ele>767.27</ele>
        <time>2013-01-03T09:00:25Z</time>
      </trkpt>
      <trkpt lat="44.519" lon="5.69507">
        <ele>766.31</ele>
        <time>2013-01-03T09:00:39Z</time>
      </trkpt>
      <trkpt lat="44.5189" lon="5.69513">
        <ele>767.27</ele>
        <time>2013-01-03T09:00:54Z</time>
      </trkpt>
      <trkpt lat="44.51885" lon="5.69516">
        <ele>768.23</ele>
        <time>2013-01-03T09:01:05Z</time>
      </trkpt>
      <trkpt lat="44.51885" lon="5.69515">
        <ele>768.23</ele>
        <time>2013-01-03T09:01:18Z</time>
      </trkpt>
      <trkpt lat="44.51879" lon="5.69506">
        <ele>768.23</ele>
        <time>2013-01-03T09:01:31Z</time>
      </trkpt>
      <trkpt lat="44.51871" lon="5.69491">
        <ele>768.23</ele>
        <time>2013-01-03T09:01:49Z</time>
      </trkpt>
      <trkpt lat="44.51877" lon="5.69483">
        <ele>767.75</ele>
        <time>2013-01-03T09:02:00Z</time>
      </trkpt>
      <trkpt lat="44.51884" lon="5.69473">
        <ele>767.27</ele>
        <time>2013-01-03T09:02:14Z</time>
      </trkpt>
      <trkpt lat="44.51883" lon="5.69471">
        <ele>767.27</ele>
        <time>2013-01-03T09:02:26Z</time>
      </trkpt>
      <trkpt lat="44.51882" lon="5.69471">
        <ele>767.27</ele>
        <time>2013-01-03T09:02:57Z</time>
      </trkpt>
      <trkpt lat="44.51882" lon="5.69471">
        <ele>767.27</ele>
        <time>2013-01-03T09:03:19Z</time>
      </trkpt>
      <trkpt lat="44.51883" lon="5.6947">
        <ele>767.75</ele>
        <time>2013-01-03T09:03:46Z</time>
      </trkpt>
      <trkpt lat="44.51884" lon="5.69468">
        <ele>767.27</ele>
        <time>2013-01-03T09:03:59Z</time>
      </trkpt>
      <trkpt lat="44.51888" lon="5.69464">
        <ele>766.79</ele>
        <time>2013-01-03T09:04:13Z</time>
      </trkpt>
      <trkpt lat="44.51899" lon="5.69451">
        <ele>766.79</ele>
        <time>2013-01-03T09:04:29Z</time>
      </trkpt>
      <trkpt lat="44.51911" lon="5.69443">
        <ele>767.27</ele>
        <time>2013-01-03T09:04:44Z</time>
      </trkpt>
      <trkpt lat="44.51926" lon="5.69437">
        <ele>767.27</ele>
        <time>2013-01-03T09:05:01Z</time>
      </trkpt>
      <trkpt lat="44.51944" lon="5.69434">
        <ele>767.27</ele>
        <time>2013-01-03T09:05:17Z</time>
      </trkpt>
      <trkpt lat="44.51962" lon="5.69435">
        <ele>767.27</ele>
        <time>2013-01-03T09:05:35Z</time>
      </trkpt>
      <trkpt lat="44.51983" lon="5.69437">
        <ele>767.27</ele>
        <time>2013-01-03T09:05:55Z</time>
      </trkpt>
      <trkpt lat="44.52002" lon="5.69435">
        <ele>767.75</ele>
        <time>2013-01-03T09:06:12Z</time>
      </trkpt>
      <trkpt lat="44.52021" lon="5.69421">
        <ele>767.75</ele>
        <time>2013-01-03T09:06:32Z</time>
      </trkpt>
      <trkpt lat="44.52037" lon="5.69402">
        <ele>768.23</ele>
        <time>2013-01-03T09:06:51Z</time>
      </trkpt>
      <trkpt lat="44.52052" lon="5.6938">
        <ele>768.23</ele>
        <time>2013-01-03T09:07:11Z</time>
      </trkpt>
      <trkpt lat="44.52067" lon="5.69364">
        <ele>768.71</ele>
        <time>2013-01-03T09:07:28Z</time>
      </trkpt>
      <trkpt lat="44.52073" lon="5.69359">
        <ele>769.19</ele>
        <time>2013-01-03T09:07:34Z</time>
      </trkpt>
      <trkpt lat="44.52077" lon="5.69355">
        <ele>768.71</ele>
        <time>2013-01-03T09:07:38Z</time>
      </trkpt>
      <trkpt lat="44.52094" lon="5.69341">
        <ele>769.19</ele>
        <time>2013-01-03T09:07:58Z</time>
      </trkpt>
      <trkpt lat="44.52097" lon="5.69338">
        <ele>769.67</ele>
        <time>2013-01-03T09:08:01Z</time>
      </trkpt>
      <trkpt lat="44.52107" lon="5.69328">
        <ele>769.67</ele>
        <time>2013-01-03T09:08:11Z</time>
      </trkpt>
      <trkpt lat="44.52116" lon="5.69308">
        <ele>769.67</ele>
        <time>2013-01-03T09:08:25Z</time>
      </trkpt>
      <trkpt lat="44.52122" lon="5.69286">
        <ele>770.15</ele>
        <time>2013-01-03T09:08:40Z</time>
      </trkpt>
      <trkpt lat="44.52132" lon="5.69263">
        <ele>770.15</ele>
        <time>2013-01-03T09:08:58Z</time>
      </trkpt>
      <trkpt lat="44.52144" lon="5.69239">
        <ele>770.63</ele>
        <time>2013-01-03T09:09:17Z</time>
      </trkpt>
      <trkpt lat="44.52151" lon="5.69228">
        <ele>770.63</ele>
        <time>2013-01-03T09:09:27Z</time>
      </trkpt>
      <trkpt lat="44.52154" lon="5.69224">
        <ele>770.63</ele>
        <time>2013-01-03T09:09:31Z</time>
      </trkpt>
      <trkpt lat="44.52157" lon="5.69219">
        <ele>770.63</ele>
        <time>2013-01-03T09:09:35Z</time>
      </trkpt>
      <trkpt lat="44.52167" lon="5.69204">
        <ele>770.63</ele>
        <time>2013-01-03T09:09:48Z</time>
      </trkpt>
      <trkpt lat="44.52178" lon="5.69182">
        <ele>771.11</ele>
        <time>2013-01-03T09:10:05Z</time>
      </trkpt>
      <trkpt lat="44.52179" lon="5.69181">
        <ele>771.11</ele>
        <time>2013-01-03T09:10:06Z</time>
      </trkpt>
      <trkpt lat="44.52182" lon="5.69172">
        <ele>771.6</ele>
        <time>2013-01-03T09:10:12Z</time>
      </trkpt>
      <trkpt lat="44.52192" lon="5.6915">
        <ele>771.6</ele>
        <time>2013-01-03T09:10:29Z</time>
      </trkpt>
      <trkpt lat="44.52195" lon="5.69145">
        <ele>772.08</ele>
        <time>2013-01-03T09:10:33Z</time>
      </trkpt>
      <trkpt lat="44.52211" lon="5.69128">
        <ele>771.6</ele>
        <time>2013-01-03T09:10:51Z</time>
      </trkpt>
      <trkpt lat="44.52227" lon="5.69111">
        <ele>772.08</ele>
        <time>2013-01-03T09:11:09Z</time>
      </trkpt>
      <trkpt lat="44.52239" lon="5.69099">
        <ele>771.6</ele>
        <time>2013-01-03T09:11:23Z</time>
      </trkpt>
      <trkpt lat="44.52253" lon="5.69085">
        <ele>772.08</ele>
        <time>2013-01-03T09:11:40Z</time>
      </trkpt>
      <trkpt lat="44.52259" lon="5.69081">
        <ele>772.08</ele>
        <time>2013-01-03T09:11:46Z</time>
      </trkpt>
      <trkpt lat="44.52278" lon="5.6907">
        <ele>772.08</ele>
        <time>2013-01-03T09:12:07Z</time>
      </trkpt>
      <trkpt lat="44.5229" lon="5.69057">
        <ele>772.56</ele>
        <time>2013-01-03T09:12:22Z</time>
      </trkpt>
      <trkpt lat="44.52291" lon="5.69054">
        <ele>772.56</ele>
        <time>2013-01-03T09:12:24Z</time>
      </trkpt>
      <trkpt lat="44.52291" lon="5.69047">
        <ele>772.56</ele>
        <time>2013-01-03T09:12:28Z</time>
      </trkpt>
      <trkpt lat="44.52282" lon="5.69026">
        <ele>773.04</ele>
        <time>2013-01-03T09:12:44Z</time>
      </trkpt>
      <trkpt lat="44.52275" lon="5.69007">
        <ele>773.52</ele>
        <time>2013-01-03T09:13:00Z</time>
      </trkpt>
      <trkpt lat="44.52268" lon="5.68988">
        <ele>774.48</ele>
        <time>2013-01-03T09:13:15Z</time>
      </trkpt>
      <trkpt lat="44.52262" lon="5.68973">
        <ele>774.96</ele>
        <time>2013-01-03T09:13:27Z</time>
      </trkpt>
      <trkpt lat="44.52255" lon="5.68954">
        <ele>776.4</ele>
        <time>2013-01-03T09:13:43Z</time>
      </trkpt>
      <trkpt lat="44.52253" lon="5.68932">
        <ele>777.36</ele>
        <time>2013-01-03T09:14:00Z</time>
      </trkpt>
      <trkpt lat="44.52254" lon="5.68904">
        <ele>777.84</ele>
        <time>2013-01-03T09:14:19Z</time>
      </trkpt>
      <trkpt lat="44.52249" lon="5.68876">
        <ele>778.32</ele>
        <time>2013-01-03T09:14:37Z</time>
      </trkpt>
      <trkpt lat="44.52237" lon="5.68853">
        <ele>778.81</ele>
        <time>2013-01-03T09:14:55Z</time>
      </trkpt>
      <trkpt lat="44.52227" lon="5.68833">
        <ele>779.77</ele>
        <time>2013-01-03T09:15:11Z</time>
      </trkpt>
      <trkpt lat="44.52215" lon="5.68813">
        <ele>780.25</ele>
        <time>2013-01-03T09:15:28Z</time>
      </trkpt>
      <trkpt lat="44.52204" lon="5.68792">
        <ele>781.21</ele>
        <time>2013-01-03T09:15:47Z</time>
      </trkpt>
      <trkpt lat="44.52203" lon="5.68791">
        <ele>781.21</ele>
        <time>2013-01-03T09:15:48Z</time>
      </trkpt>
      <trkpt lat="44.52202" lon="5.68788">
        <ele>781.69</ele>
        <time>2013-01-03T09:15:50Z</time>
      </trkpt>
      <trkpt lat="44.52201" lon="5.68786">
        <ele>781.69</ele>
        <time>2013-01-03T09:15:52Z</time>
      </trkpt>
      <trkpt lat="44.52194" lon="5.68765">
        <ele>783.13</ele>
        <time>2013-01-03T09:16:10Z</time>
      </trkpt>
      <trkpt lat="44.52193" lon="5.68757">
        <ele>783.61</ele>
        <time>2013-01-03T09:16:17Z</time>
      </trkpt>
      <trkpt lat="44.52201" lon="5.68739">
        <ele>783.61</ele>
        <time>2013-01-03T09:16:34Z</time>
      </trkpt>
      <trkpt lat="44.52208" lon="5.68713">
        <ele>784.57</ele>
        <time>2013-01-03T09:16:53Z</time>
      </trkpt>
      <trkpt lat="44.52212" lon="5.68685">
        <ele>785.05</ele>
        <time>2013-01-03T09:17:11Z</time>
      </trkpt>
      <trkpt lat="44.52214" lon="5.68663">
        <ele>785.53</ele>
        <time>2013-01-03T09:17:26Z</time>
      </trkpt>
      <trkpt lat="44.52217" lon="5.68635">
        <ele>786.5</ele>
        <time>2013-01-03T09:17:45Z</time>
      </trkpt>
      <trkpt lat="44.52223" lon="5.68611">
        <ele>787.46</ele>
        <time>2013-01-03T09:18:03Z</time>
      </trkpt>
      <trkpt lat="44.52234" lon="5.68595">
        <ele>787.94</ele>
        <time>2013-01-03T09:18:18Z</time>
      </trkpt>
      <trkpt lat="44.52251" lon="5.68577">
        <ele>787.94</ele>
        <time>2013-01-03T09:18:38Z</time>
      </trkpt>
      <trkpt lat="44.52266" lon="5.68559">
        <ele>787.46</ele>
        <time>2013-01-03T09:18:55Z</time>
      </trkpt>
      <trkpt lat="44.52276" lon="5.6854">
        <ele>787.46</ele>
        <time>2013-01-03T09:19:12Z</time>
      </trkpt>
      <trkpt lat="44.5227" lon="5.6851">
        <ele>787.94</ele>
        <time>2013-01-03T09:19:31Z</time>
      </trkpt>
      <trkpt lat="44.52268" lon="5.68502">
        <ele>788.42</ele>
        <time>2013-01-03T09:19:46Z</time>
      </trkpt>
      <trkpt lat="44.52265" lon="5.6849">
        <ele>787.94</ele>
        <time>2013-01-03T09:19:59Z</time>
      </trkpt>
      <trkpt lat="44.52256" lon="5.68464">
        <ele>788.9</ele>
        <time>2013-01-03T09:20:18Z</time>
      </trkpt>
      <trkpt lat="44.52244" lon="5.6845">
        <ele>789.86</ele>
        <time>2013-01-03T09:20:31Z</time>
      </trkpt>
      <trkpt lat="44.52239" lon="5.68444">
        <ele>789.86</ele>
        <time>2013-01-03T09:20:38Z</time>
      </trkpt>
      <trkpt lat="44.52225" lon="5.68425">
        <ele>790.82</ele>
        <time>2013-01-03T09:20:55Z</time>
      </trkpt>
      <trkpt lat="44.52218" lon="5.68406">
        <ele>791.78</ele>
        <time>2013-01-03T09:21:10Z</time>
      </trkpt>
      <trkpt lat="44.52206" lon="5.68378">
        <ele>792.74</ele>
        <time>2013-01-03T09:21:30Z</time>
      </trkpt>
      <trkpt lat="44.52193" lon="5.68365">
        <ele>793.71</ele>
        <time>2013-01-03T09:21:48Z</time>
      </trkpt>
      <trkpt lat="44.52187" lon="5.68362">
        <ele>793.71</ele>
        <time>2013-01-03T09:21:55Z</time>
      </trkpt>
      <trkpt lat="44.52172" lon="5.68353">
        <ele>794.67</ele>
        <time>2013-01-03T09:22:11Z</time>
      </trkpt>
      <trkpt lat="44.52171" lon="5.68353">
        <ele>794.67</ele>
        <time>2013-01-03T09:22:12Z</time>
      </trkpt>
      <trkpt lat="44.52165" lon="5.68344">
        <ele>795.63</ele>
        <time>2013-01-03T09:22:21Z</time>
      </trkpt>
      <trkpt lat="44.52161" lon="5.68339">
        <ele>795.63</ele>
        <time>2013-01-03T09:22:26Z</time>
      </trkpt>
      <trkpt lat="44.52159" lon="5.68337">
        <ele>795.63</ele>
        <time>2013-01-03T09:22:28Z</time>
      </trkpt>
      <trkpt lat="44.52151" lon="5.68325">
        <ele>796.59</ele>
        <time>2013-01-03T09:22:40Z</time>
      </trkpt>
      <trkpt lat="44.5215" lon="5.68322">
        <ele>796.59</ele>
        <time>2013-01-03T09:22:42Z</time>
      </trkpt>
      <trkpt lat="44.52143" lon="5.68312">
        <ele>797.07</ele>
        <time>2013-01-03T09:22:51Z</time>
      </trkpt>
      <trkpt lat="44.52131" lon="5.68291">
        <ele>798.03</ele>
        <time>2013-01-03T09:23:09Z</time>
      </trkpt>
      <trkpt lat="44.5212" lon="5.68267">
        <ele>798.99</ele>
        <time>2013-01-03T09:23:28Z</time>
      </trkpt>
      <trkpt lat="44.5211" lon="5.68242">
        <ele>799.95</ele>
        <time>2013-01-03T09:23:47Z</time>
      </trkpt>
      <trkpt lat="44.52102" lon="5.6822">
        <ele>800.92</ele>
        <time>2013-01-03T09:24:04Z</time>
      </trkpt>
      <trkpt lat="44.52091" lon="5.68193">
        <ele>802.36</ele>
        <time>2013-01-03T09:24:24Z</time>
      </trkpt>
      <trkpt lat="44.52075" lon="5.68175">
        <ele>803.32</ele>
        <time>2013-01-03T09:24:43Z</time>
      </trkpt>
      <trkpt lat="44.52057" lon="5.68158">
        <ele>804.76</ele>
        <time>2013-01-03T09:25:01Z</time>
      </trkpt>
      <trkpt lat="44.52042" lon="5.68142">
        <ele>806.2</ele>
        <time>2013-01-03T09:25:18Z</time>
      </trkpt>
      <trkpt lat="44.52026" lon="5.68123">
        <ele>807.16</ele>
        <time>2013-01-03T09:25:37Z</time>
      </trkpt>
      <trkpt lat="44.52013" lon="5.68102">
        <ele>808.61</ele>
        <time>2013-01-03T09:25:55Z</time>
      </trkpt>
      <trkpt lat="44.52008" lon="5.68093">
        <ele>809.57</ele>
        <time>2013-01-03T09:26:02Z</time>
      </trkpt>
      <trkpt lat="44.52002" lon="5.68072">
        <ele>811.01</ele>
        <time>2013-01-03T09:26:18Z</time>
      </trkpt>
      <trkpt lat="44.51995" lon="5.68054">
        <ele>812.45</ele>
        <time>2013-01-03T09:26:32Z</time>
      </trkpt>
      <trkpt lat="44.51993" lon="5.6805">
        <ele>812.93</ele>
        <time>2013-01-03T09:26:36Z</time>
      </trkpt>
      <trkpt lat="44.51979" lon="5.68039">
        <ele>814.85</ele>
        <time>2013-01-03T09:26:52Z</time>
      </trkpt>
      <trkpt lat="44.51972" lon="5.68037">
        <ele>815.82</ele>
        <time>2013-01-03T09:26:59Z</time>
      </trkpt>
      <trkpt lat="44.51959" lon="5.68034">
        <ele>817.26</ele>
        <time>2013-01-03T09:27:13Z</time>
      </trkpt>
      <trkpt lat="44.51947" lon="5.68029">
        <ele>818.7</ele>
        <time>2013-01-03T09:27:28Z</time>
      </trkpt>
      <trkpt lat="44.51935" lon="5.6802">
        <ele>819.66</ele>
        <time>2013-01-03T09:27:42Z</time>
      </trkpt>
      <trkpt lat="44.51932" lon="5.68018">
        <ele>820.14</ele>
        <time>2013-01-03T09:27:45Z</time>
      </trkpt>
      <trkpt lat="44.51922" lon="5.68007">
        <ele>821.58</ele>
        <time>2013-01-03T09:28:00Z</time>
      </trkpt>
      <trkpt lat="44.5191" lon="5.67996">
        <ele>822.55</ele>
        <time>2013-01-03T09:28:16Z</time>
      </trkpt>
      <trkpt lat="44.51896" lon="5.67983">
        <ele>823.99</ele>
        <time>2013-01-03T09:28:33Z</time>
      </trkpt>
      <trkpt lat="44.51888" lon="5.67972">
        <ele>825.43</ele>
        <time>2013-01-03T09:28:48Z</time>
      </trkpt>
      <trkpt lat="44.51876" lon="5.67963">
        <ele>826.39</ele>
        <time>2013-01-03T09:29:03Z</time>
      </trkpt>
      <trkpt lat="44.51865" lon="5.67953">
        <ele>826.39</ele>
        <time>2013-01-03T09:29:16Z</time>
      </trkpt>
      <trkpt lat="44.51857" lon="5.67948">
        <ele>826.87</ele>
        <time>2013-01-03T09:29:24Z</time>
      </trkpt>
      <trkpt lat="44.51854" lon="5.67947">
        <ele>826.39</ele>
        <time>2013-01-03T09:29:27Z</time>
      </trkpt>
      <trkpt lat="44.51844" lon="5.6795">
        <ele>827.35</ele>
        <time>2013-01-03T09:29:37Z</time>
      </trkpt>
      <trkpt lat="44.51836" lon="5.67949">
        <ele>828.79</ele>
        <time>2013-01-03T09:29:46Z</time>
      </trkpt>
      <trkpt lat="44.51834" lon="5.67949">
        <ele>828.79</ele>
        <time>2013-01-03T09:29:48Z</time>
      </trkpt>
      <trkpt lat="44.5182" lon="5.67959">
        <ele>830.72</ele>
        <time>2013-01-03T09:30:04Z</time>
      </trkpt>
      <trkpt lat="44.51809" lon="5.67968">
        <ele>832.64</ele>
        <time>2013-01-03T09:30:18Z</time>
      </trkpt>
      <trkpt lat="44.51801" lon="5.67966">
        <ele>834.08</ele>
        <time>2013-01-03T09:30:32Z</time>
      </trkpt>
      <trkpt lat="44.51794" lon="5.67963">
        <ele>835.04</ele>
        <time>2013-01-03T09:30:44Z</time>
      </trkpt>
      <trkpt lat="44.51785" lon="5.67958">
        <ele>837.45</ele>
        <time>2013-01-03T09:30:58Z</time>
      </trkpt>
      <trkpt lat="44.51784" lon="5.67957">
        <ele>837.45</ele>
        <time>2013-01-03T09:31:00Z</time>
      </trkpt>
      <trkpt lat="44.51776" lon="5.6795">
        <ele>838.89</ele>
        <time>2013-01-03T09:31:12Z</time>
      </trkpt>
      <trkpt lat="44.51768" lon="5.67946">
        <ele>840.81</ele>
        <time>2013-01-03T09:31:21Z</time>
      </trkpt>
      <trkpt lat="44.51758" lon="5.67936">
        <ele>842.73</ele>
        <time>2013-01-03T09:31:35Z</time>
      </trkpt>
      <trkpt lat="44.51749" lon="5.67925">
        <ele>844.18</ele>
        <time>2013-01-03T09:31:49Z</time>
      </trkpt>
      <trkpt lat="44.51741" lon="5.67916">
        <ele>846.1</ele>
        <time>2013-01-03T09:32:03Z</time>
      </trkpt>
      <trkpt lat="44.51732" lon="5.67908">
        <ele>848.02</ele>
        <time>2013-01-03T09:32:17Z</time>
      </trkpt>
      <trkpt lat="44.51723" lon="5.67899">
        <ele>848.98</ele>
        <time>2013-01-03T09:32:31Z</time>
      </trkpt>
      <trkpt lat="44.51719" lon="5.67896">
        <ele>849.46</ele>
        <time>2013-01-03T09:32:35Z</time>
      </trkpt>
      <trkpt lat="44.51714" lon="5.67892">
        <ele>850.42</ele>
        <time>2013-01-03T09:32:42Z</time>
      </trkpt>
      <trkpt lat="44.51707" lon="5.67888">
        <ele>850.42</ele>
        <time>2013-01-03T09:32:50Z</time>
      </trkpt>
      <trkpt lat="44.51704" lon="5.67888">
        <ele>850.9</ele>
        <time>2013-01-03T09:32:53Z</time>
      </trkpt>
      <trkpt lat="44.51701" lon="5.67887">
        <ele>851.87</ele>
        <time>2013-01-03T09:32:56Z</time>
      </trkpt>
      <trkpt lat="44.51699" lon="5.67885">
        <ele>850.9</ele>
        <time>2013-01-03T09:32:58Z</time>
      </trkpt>
      <trkpt lat="44.51681" lon="5.67878">
        <ele>850.42</ele>
        <time>2013-01-03T09:33:14Z</time>
      </trkpt>
      <trkpt lat="44.51668" lon="5.67865">
        <ele>849.46</ele>
        <time>2013-01-03T09:33:30Z</time>
      </trkpt>
      <trkpt lat="44.51661" lon="5.67859">
        <ele>849.46</ele>
        <time>2013-01-03T09:33:37Z</time>
      </trkpt>
      <trkpt lat="44.51656" lon="5.67858">
        <ele>849.46</ele>
        <time>2013-01-03T09:33:41Z</time>
      </trkpt>
      <trkpt lat="44.51637" lon="5.67847">
        <ele>850.9</ele>
        <time>2013-01-03T09:33:59Z</time>
      </trkpt>
      <trkpt lat="44.51626" lon="5.67844">
        <ele>852.35</ele>
        <time>2013-01-03T09:34:10Z</time>
      </trkpt>
      <trkpt lat="44.51618" lon="5.67842">
        <ele>853.79</ele>
        <time>2013-01-03T09:34:19Z</time>
      </trkpt>
      <trkpt lat="44.51617" lon="5.67841">
        <ele>854.27</ele>
        <time>2013-01-03T09:34:21Z</time>
      </trkpt>
      <trkpt lat="44.51605" lon="5.67831">
        <ele>856.67</ele>
        <time>2013-01-03T09:34:35Z</time>
      </trkpt>
      <trkpt lat="44.51594" lon="5.6781">
        <ele>858.11</ele>
        <time>2013-01-03T09:34:53Z</time>
      </trkpt>
      <trkpt lat="44.51581" lon="5.67793">
        <ele>856.19</ele>
        <time>2013-01-03T09:35:10Z</time>
      </trkpt>
      <trkpt lat="44.5158" lon="5.67791">
        <ele>856.19</ele>
        <time>2013-01-03T09:35:12Z</time>
      </trkpt>
      <trkpt lat="44.51569" lon="5.67775">
        <ele>854.75</ele>
        <time>2013-01-03T09:35:27Z</time>
      </trkpt>
      <trkpt lat="44.51568" lon="5.67757">
        <ele>851.87</ele>
        <time>2013-01-03T09:35:46Z</time>
      </trkpt>
      <trkpt lat="44.51572" lon="5.6774">
        <ele>848.98</ele>
        <time>2013-01-03T09:36:04Z</time>
      </trkpt>
      <trkpt lat="44.51574" lon="5.67723">
        <ele>846.1</ele>
        <time>2013-01-03T09:36:20Z</time>
      </trkpt>
      <trkpt lat="44.51575" lon="5.67703">
        <ele>843.21</ele>
        <time>2013-01-03T09:36:37Z</time>
      </trkpt>
      <trkpt lat="44.51585" lon="5.67697">
        <ele>840.81</ele>
        <time>2013-01-03T09:36:54Z</time>
      </trkpt>
      <trkpt lat="44.51593" lon="5.67701">
        <ele>839.37</ele>
        <time>2013-01-03T09:37:03Z</time>
      </trkpt>
      <trkpt lat="44.51603" lon="5.67694">
        <ele>836.96</ele>
        <time>2013-01-03T09:37:18Z</time>
      </trkpt>
      <trkpt lat="44.51604" lon="5.67686">
        <ele>836</ele>
        <time>2013-01-03T09:37:24Z</time>
      </trkpt>
      <trkpt lat="44.51602" lon="5.67665">
        <ele>833.12</ele>
        <time>2013-01-03T09:37:41Z</time>
      </trkpt>
      <trkpt lat="44.51597" lon="5.67663">
        <ele>832.64</ele>
        <time>2013-01-03T09:37:54Z</time>
      </trkpt>
      <trkpt lat="44.51593" lon="5.67662">
        <ele>832.64</ele>
        <time>2013-01-03T09:38:08Z</time>
      </trkpt>
      <trkpt lat="44.51589" lon="5.67656">
        <ele>831.2</ele>
        <time>2013-01-03T09:38:18Z</time>
      </trkpt>
      <trkpt lat="44.51587" lon="5.67655">
        <ele>832.16</ele>
        <time>2013-01-03T09:38:20Z</time>
      </trkpt>
      <trkpt lat="44.51582" lon="5.67642">
        <ele>834.56</ele>
        <time>2013-01-03T09:38:33Z</time>
      </trkpt>
      <trkpt lat="44.51584" lon="5.6763">
        <ele>836</ele>
        <time>2013-01-03T09:38:47Z</time>
      </trkpt>
      <trkpt lat="44.51587" lon="5.67619">
        <ele>839.37</ele>
        <time>2013-01-03T09:38:59Z</time>
      </trkpt>
      <trkpt lat="44.51589" lon="5.67607">
        <ele>840.33</ele>
        <time>2013-01-03T09:39:15Z</time>
      </trkpt>
      <trkpt lat="44.51593" lon="5.67599">
        <ele>842.25</ele>
        <time>2013-01-03T09:39:27Z</time>
      </trkpt>
      <trkpt lat="44.51601" lon="5.67605">
        <ele>843.21</ele>
        <time>2013-01-03T09:39:40Z</time>
      </trkpt>
      <trkpt lat="44.51611" lon="5.67609">
        <ele>845.14</ele>
        <time>2013-01-03T09:39:54Z</time>
      </trkpt>
      <trkpt lat="44.51613" lon="5.67607">
        <ele>845.14</ele>
        <time>2013-01-03T09:39:56Z</time>
      </trkpt>
      <trkpt lat="44.51607" lon="5.67596">
        <ele>845.62</ele>
        <time>2013-01-03T09:40:07Z</time>
      </trkpt>
      <trkpt lat="44.516" lon="5.67586">
        <ele>846.1</ele>
        <time>2013-01-03T09:40:18Z</time>
      </trkpt>
      <trkpt lat="44.51588" lon="5.67568">
        <ele>847.06</ele>
        <time>2013-01-03T09:40:36Z</time>
      </trkpt>
      <trkpt lat="44.51579" lon="5.67556">
        <ele>847.06</ele>
        <time>2013-01-03T09:40:48Z</time>
      </trkpt>
      <trkpt lat="44.51577" lon="5.67554">
        <ele>847.54</ele>
        <time>2013-01-03T09:40:50Z</time>
      </trkpt>
      <trkpt lat="44.5156" lon="5.67544">
        <ele>847.06</ele>
        <time>2013-01-03T09:41:06Z</time>
      </trkpt>
      <trkpt lat="44.51544" lon="5.67535">
        <ele>845.14</ele>
        <time>2013-01-03T09:41:24Z</time>
      </trkpt>
      <trkpt lat="44.51525" lon="5.67526">
        <ele>842.73</ele>
        <time>2013-01-03T09:41:43Z</time>
      </trkpt>
      <trkpt lat="44.51511" lon="5.67536">
        <ele>840.81</ele>
        <time>2013-01-03T09:42:01Z</time>
      </trkpt>
      <trkpt lat="44.51504" lon="5.67536">
        <ele>840.81</ele>
        <time>2013-01-03T09:42:12Z</time>
      </trkpt>
      <trkpt lat="44.51502" lon="5.67535">
        <ele>841.29</ele>
        <time>2013-01-03T09:42:14Z</time>
      </trkpt>
      <trkpt lat="44.51491" lon="5.67522">
        <ele>842.25</ele>
        <time>2013-01-03T09:42:30Z</time>
      </trkpt>
      <trkpt lat="44.51482" lon="5.67512">
        <ele>844.66</ele>
        <time>2013-01-03T09:42:45Z</time>
      </trkpt>
      <trkpt lat="44.51474" lon="5.67503">
        <ele>846.58</ele>
        <time>2013-01-03T09:43:00Z</time>
      </trkpt>
      <trkpt lat="44.51466" lon="5.67493">
        <ele>848.98</ele>
        <time>2013-01-03T09:43:15Z</time>
      </trkpt>
      <trkpt lat="44.51458" lon="5.67483">
        <ele>850.9</ele>
        <time>2013-01-03T09:43:30Z</time>
      </trkpt>
      <trkpt lat="44.51457" lon="5.67472">
        <ele>852.35</ele>
        <time>2013-01-03T09:43:43Z</time>
      </trkpt>
      <trkpt lat="44.51454" lon="5.67466">
        <ele>853.31</ele>
        <time>2013-01-03T09:43:59Z</time>
      </trkpt>
      <trkpt lat="44.5145" lon="5.67453">
        <ele>855.23</ele>
        <time>2013-01-03T09:44:12Z</time>
      </trkpt>
      <trkpt lat="44.51443" lon="5.6744">
        <ele>857.15</ele>
        <time>2013-01-03T09:44:25Z</time>
      </trkpt>
      <trkpt lat="44.51436" lon="5.67424">
        <ele>859.08</ele>
        <time>2013-01-03T09:44:40Z</time>
      </trkpt>
      <trkpt lat="44.5143" lon="5.67407">
        <ele>860.04</ele>
        <time>2013-01-03T09:44:54Z</time>
      </trkpt>
      <trkpt lat="44.51424" lon="5.67392">
        <ele>861.96</ele>
        <time>2013-01-03T09:45:08Z</time>
      </trkpt>
      <trkpt lat="44.51422" lon="5.67389">
        <ele>861.96</ele>
        <time>2013-01-03T09:45:11Z</time>
      </trkpt>
      <trkpt lat="44.5141" lon="5.67375">
        <ele>862.92</ele>
        <time>2013-01-03T09:45:26Z</time>
      </trkpt>
      <trkpt lat="44.51393" lon="5.6737">
        <ele>863.88</ele>
        <time>2013-01-03T09:45:42Z</time>
      </trkpt>
      <trkpt lat="44.5139" lon="5.6737">
        <ele>863.88</ele>
        <time>2013-01-03T09:45:45Z</time>
      </trkpt>
      <trkpt lat="44.51376" lon="5.67368">
        <ele>865.32</ele>
        <time>2013-01-03T09:45:59Z</time>
      </trkpt>
      <trkpt lat="44.51365" lon="5.67369">
        <ele>866.29</ele>
        <time>2013-01-03T09:46:12Z</time>
      </trkpt>
      <trkpt lat="44.51352" lon="5.67371">
        <ele>866.77</ele>
        <time>2013-01-03T09:46:26Z</time>
      </trkpt>
      <trkpt lat="44.51339" lon="5.67367">
        <ele>867.73</ele>
        <time>2013-01-03T09:46:39Z</time>
      </trkpt>
      <trkpt lat="44.51337" lon="5.67365">
        <ele>868.21</ele>
        <time>2013-01-03T09:46:43Z</time>
      </trkpt>
      <trkpt lat="44.51327" lon="5.67359">
        <ele>869.65</ele>
        <time>2013-01-03T09:46:54Z</time>
      </trkpt>
      <trkpt lat="44.51311" lon="5.67359">
        <ele>871.57</ele>
        <time>2013-01-03T09:47:10Z</time>
      </trkpt>
      <trkpt lat="44.5131" lon="5.67359">
        <ele>871.57</ele>
        <time>2013-01-03T09:47:11Z</time>
      </trkpt>
      <trkpt lat="44.51308" lon="5.6736">
        <ele>871.57</ele>
        <time>2013-01-03T09:47:13Z</time>
      </trkpt>
      <trkpt lat="44.51295" lon="5.67358">
        <ele>873.98</ele>
        <time>2013-01-03T09:47:27Z</time>
      </trkpt>
      <trkpt lat="44.51294" lon="5.67358">
        <ele>873.98</ele>
        <time>2013-01-03T09:47:29Z</time>
      </trkpt>
      <trkpt lat="44.51282" lon="5.67353">
        <ele>876.86</ele>
        <time>2013-01-03T09:47:44Z</time>
      </trkpt>
      <trkpt lat="44.51271" lon="5.67347">
        <ele>878.78</ele>
        <time>2013-01-03T09:47:57Z</time>
      </trkpt>
      <trkpt lat="44.5126" lon="5.67341">
        <ele>880.71</ele>
        <time>2013-01-03T09:48:12Z</time>
      </trkpt>
      <trkpt lat="44.5125" lon="5.67336">
        <ele>882.63</ele>
        <time>2013-01-03T09:48:26Z</time>
      </trkpt>
      <trkpt lat="44.51241" lon="5.67329">
        <ele>884.55</ele>
        <time>2013-01-03T09:48:41Z</time>
      </trkpt>
      <trkpt lat="44.51237" lon="5.67326">
        <ele>885.03</ele>
        <time>2013-01-03T09:48:46Z</time>
      </trkpt>
      <trkpt lat="44.51232" lon="5.67321">
        <ele>886.47</ele>
        <time>2013-01-03T09:48:55Z</time>
      </trkpt>
      <trkpt lat="44.51224" lon="5.67312">
        <ele>887.91</ele>
        <time>2013-01-03T09:49:10Z</time>
      </trkpt>
      <trkpt lat="44.51219" lon="5.67304">
        <ele>889.84</ele>
        <time>2013-01-03T09:49:22Z</time>
      </trkpt>
      <trkpt lat="44.51209" lon="5.67292">
        <ele>891.28</ele>
        <time>2013-01-03T09:49:37Z</time>
      </trkpt>
      <trkpt lat="44.51201" lon="5.67285">
        <ele>891.76</ele>
        <time>2013-01-03T09:49:46Z</time>
      </trkpt>
      <trkpt lat="44.51189" lon="5.67276">
        <ele>892.72</ele>
        <time>2013-01-03T09:50:00Z</time>
      </trkpt>
      <trkpt lat="44.51174" lon="5.67268">
        <ele>893.2</ele>
        <time>2013-01-03T09:50:16Z</time>
      </trkpt>
      <trkpt lat="44.51157" lon="5.67265">
        <ele>891.28</ele>
        <time>2013-01-03T09:50:34Z</time>
      </trkpt>
      <trkpt lat="44.51144" lon="5.67259">
        <ele>890.32</ele>
        <time>2013-01-03T09:50:52Z</time>
      </trkpt>
      <trkpt lat="44.51142" lon="5.67259">
        <ele>890.32</ele>
        <time>2013-01-03T09:50:55Z</time>
      </trkpt>
      <trkpt lat="44.51143" lon="5.67245">
        <ele>891.28</ele>
        <time>2013-01-03T09:51:09Z</time>
      </trkpt>
      <trkpt lat="44.51146" lon="5.67235">
        <ele>892.72</ele>
        <time>2013-01-03T09:51:23Z</time>
      </trkpt>
      <trkpt lat="44.51145" lon="5.67224">
        <ele>894.64</ele>
        <time>2013-01-03T09:51:34Z</time>
      </trkpt>
      <trkpt lat="44.51143" lon="5.67211">
        <ele>897.05</ele>
        <time>2013-01-03T09:51:48Z</time>
      </trkpt>
      <trkpt lat="44.5114" lon="5.672">
        <ele>898.97</ele>
        <time>2013-01-03T09:52:01Z</time>
      </trkpt>
      <trkpt lat="44.51136" lon="5.67189">
        <ele>900.89</ele>
        <time>2013-01-03T09:52:16Z</time>
      </trkpt>
      <trkpt lat="44.51133" lon="5.67179">
        <ele>903.3</ele>
        <time>2013-01-03T09:52:29Z</time>
      </trkpt>
      <trkpt lat="44.51131" lon="5.67172">
        <ele>905.22</ele>
        <time>2013-01-03T09:52:41Z</time>
      </trkpt>
      <trkpt lat="44.51128" lon="5.67158">
        <ele>908.1</ele>
        <time>2013-01-03T09:53:00Z</time>
      </trkpt>
      <trkpt lat="44.51128" lon="5.67146">
        <ele>910.51</ele>
        <time>2013-01-03T09:53:15Z</time>
      </trkpt>
      <trkpt lat="44.51129" lon="5.67137">
        <ele>912.91</ele>
        <time>2013-01-03T09:53:29Z</time>
      </trkpt>
      <trkpt lat="44.5113" lon="5.67126">
        <ele>914.83</ele>
        <time>2013-01-03T09:53:42Z</time>
      </trkpt>
      <trkpt lat="44.5113" lon="5.67113">
        <ele>917.72</ele>
        <time>2013-01-03T09:53:55Z</time>
      </trkpt>
      <trkpt lat="44.51127" lon="5.67103">
        <ele>919.16</ele>
        <time>2013-01-03T09:54:06Z</time>
      </trkpt>
      <trkpt lat="44.51118" lon="5.67097">
        <ele>922.04</ele>
        <time>2013-01-03T09:54:20Z</time>
      </trkpt>
      <trkpt lat="44.51108" lon="5.67101">
        <ele>924.93</ele>
        <time>2013-01-03T09:54:34Z</time>
      </trkpt>
      <trkpt lat="44.51098" lon="5.67104">
        <ele>927.81</ele>
        <time>2013-01-03T09:54:48Z</time>
      </trkpt>
      <trkpt lat="44.5109" lon="5.67108">
        <ele>929.73</ele>
        <time>2013-01-03T09:55:00Z</time>
      </trkpt>
      <trkpt lat="44.51081" lon="5.67111">
        <ele>932.14</ele>
        <time>2013-01-03T09:55:14Z</time>
      </trkpt>
      <trkpt lat="44.51072" lon="5.67116">
        <ele>935.02</ele>
        <time>2013-01-03T09:55:27Z</time>
      </trkpt>
      <trkpt lat="44.51062" lon="5.67123">
        <ele>937.9</ele>
        <time>2013-01-03T09:55:42Z</time>
      </trkpt>
      <trkpt lat="44.51054" lon="5.67133">
        <ele>940.79</ele>
        <time>2013-01-03T09:55:56Z</time>
      </trkpt>
      <trkpt lat="44.51053" lon="5.67136">
        <ele>941.27</ele>
        <time>2013-01-03T09:55:59Z</time>
      </trkpt>
      <trkpt lat="44.51046" lon="5.67146">
        <ele>944.63</ele>
        <time>2013-01-03T09:56:14Z</time>
      </trkpt>
      <trkpt lat="44.51045" lon="5.67148">
        <ele>945.11</ele>
        <time>2013-01-03T09:56:18Z</time>
      </trkpt>
      <trkpt lat="44.51037" lon="5.67156">
        <ele>947.52</ele>
        <time>2013-01-03T09:56:31Z</time>
      </trkpt>
      <trkpt lat="44.51028" lon="5.67161">
        <ele>950.4</ele>
        <time>2013-01-03T09:56:44Z</time>
      </trkpt>
      <trkpt lat="44.51019" lon="5.67162">
        <ele>951.84</ele>
        <time>2013-01-03T09:56:55Z</time>
      </trkpt>
      <trkpt lat="44.51015" lon="5.6716">
        <ele>952.8</ele>
        <time>2013-01-03T09:57:00Z</time>
      </trkpt>
      <trkpt lat="44.51013" lon="5.67158">
        <ele>952.8</ele>
        <time>2013-01-03T09:57:02Z</time>
      </trkpt>
      <trkpt lat="44.51012" lon="5.67156">
        <ele>952.8</ele>
        <time>2013-01-03T09:57:04Z</time>
      </trkpt>
      <trkpt lat="44.51002" lon="5.67142">
        <ele>954.25</ele>
        <time>2013-01-03T09:57:20Z</time>
      </trkpt>
      <trkpt lat="44.50993" lon="5.67131">
        <ele>955.21</ele>
        <time>2013-01-03T09:57:33Z</time>
      </trkpt>
      <trkpt lat="44.50981" lon="5.67123">
        <ele>957.13</ele>
        <time>2013-01-03T09:57:47Z</time>
      </trkpt>
      <trkpt lat="44.50978" lon="5.6712">
        <ele>957.13</ele>
        <time>2013-01-03T09:57:51Z</time>
      </trkpt>
      <trkpt lat="44.50965" lon="5.67115">
        <ele>959.05</ele>
        <time>2013-01-03T09:58:05Z</time>
      </trkpt>
      <trkpt lat="44.50954" lon="5.6711">
        <ele>960.98</ele>
        <time>2013-01-03T09:58:20Z</time>
      </trkpt>
      <trkpt lat="44.50944" lon="5.67108">
        <ele>962.42</ele>
        <time>2013-01-03T09:58:33Z</time>
      </trkpt>
      <trkpt lat="44.50936" lon="5.67103">
        <ele>964.34</ele>
        <time>2013-01-03T09:58:47Z</time>
      </trkpt>
      <trkpt lat="44.50929" lon="5.67092">
        <ele>966.74</ele>
        <time>2013-01-03T09:59:01Z</time>
      </trkpt>
      <trkpt lat="44.50921" lon="5.67083">
        <ele>969.15</ele>
        <time>2013-01-03T09:59:15Z</time>
      </trkpt>
      <trkpt lat="44.50914" lon="5.67076">
        <ele>971.07</ele>
        <time>2013-01-03T09:59:29Z</time>
      </trkpt>
      <trkpt lat="44.50903" lon="5.67071">
        <ele>972.99</ele>
        <time>2013-01-03T09:59:43Z</time>
      </trkpt>
      <trkpt lat="44.50891" lon="5.6707">
        <ele>974.91</ele>
        <time>2013-01-03T09:59:57Z</time>
      </trkpt>
      <trkpt lat="44.5088" lon="5.67072">
        <ele>977.32</ele>
        <time>2013-01-03T10:00:11Z</time>
      </trkpt>
      <trkpt lat="44.50872" lon="5.67076">
        <ele>978.76</ele>
        <time>2013-01-03T10:00:24Z</time>
      </trkpt>
      <trkpt lat="44.50864" lon="5.67077">
        <ele>980.68</ele>
        <time>2013-01-03T10:00:35Z</time>
      </trkpt>
      <trkpt lat="44.50853" lon="5.6708">
        <ele>982.12</ele>
        <time>2013-01-03T10:00:49Z</time>
      </trkpt>
      <trkpt lat="44.50852" lon="5.67082">
        <ele>981.64</ele>
        <time>2013-01-03T10:00:51Z</time>
      </trkpt>
      <trkpt lat="44.5084" lon="5.67087">
        <ele>982.12</ele>
        <time>2013-01-03T10:01:05Z</time>
      </trkpt>
      <trkpt lat="44.50831" lon="5.67097">
        <ele>984.05</ele>
        <time>2013-01-03T10:01:20Z</time>
      </trkpt>
      <trkpt lat="44.5083" lon="5.6712">
        <ele>986.45</ele>
        <time>2013-01-03T10:01:36Z</time>
      </trkpt>
      <trkpt lat="44.50832" lon="5.67135">
        <ele>988.37</ele>
        <time>2013-01-03T10:01:49Z</time>
      </trkpt>
      <trkpt lat="44.50833" lon="5.67145">
        <ele>989.81</ele>
        <time>2013-01-03T10:02:01Z</time>
      </trkpt>
      <trkpt lat="44.50831" lon="5.6716">
        <ele>992.22</ele>
        <time>2013-01-03T10:02:19Z</time>
      </trkpt>
      <trkpt lat="44.50822" lon="5.67172">
        <ele>993.66</ele>
        <time>2013-01-03T10:02:35Z</time>
      </trkpt>
      <trkpt lat="44.50811" lon="5.67182">
        <ele>994.14</ele>
        <time>2013-01-03T10:02:49Z</time>
      </trkpt>
      <trkpt lat="44.50808" lon="5.67189">
        <ele>995.1</ele>
        <time>2013-01-03T10:02:56Z</time>
      </trkpt>
      <trkpt lat="44.50805" lon="5.67207">
        <ele>997.02</ele>
        <time>2013-01-03T10:03:11Z</time>
      </trkpt>
      <trkpt lat="44.50798" lon="5.67219">
        <ele>999.91</ele>
        <time>2013-01-03T10:03:25Z</time>
      </trkpt>
      <trkpt lat="44.50791" lon="5.67226">
        <ele>1002.31</ele>
        <time>2013-01-03T10:03:39Z</time>
      </trkpt>
      <trkpt lat="44.50781" lon="5.6723">
        <ele>1004.23</ele>
        <time>2013-01-03T10:03:52Z</time>
      </trkpt>
      <trkpt lat="44.5077" lon="5.67232">
        <ele>1006.64</ele>
        <time>2013-01-03T10:04:06Z</time>
      </trkpt>
      <trkpt lat="44.5076" lon="5.67234">
        <ele>1009.52</ele>
        <time>2013-01-03T10:04:21Z</time>
      </trkpt>
      <trkpt lat="44.50749" lon="5.67238">
        <ele>1011.93</ele>
        <time>2013-01-03T10:04:34Z</time>
      </trkpt>
      <trkpt lat="44.50741" lon="5.67242">
        <ele>1012.89</ele>
        <time>2013-01-03T10:04:46Z</time>
      </trkpt>
      <trkpt lat="44.5073" lon="5.67247">
        <ele>1014.33</ele>
        <time>2013-01-03T10:04:57Z</time>
      </trkpt>
      <trkpt lat="44.50718" lon="5.67254">
        <ele>1014.33</ele>
        <time>2013-01-03T10:05:10Z</time>
      </trkpt>
      <trkpt lat="44.50704" lon="5.67266">
        <ele>1014.81</ele>
        <time>2013-01-03T10:05:25Z</time>
      </trkpt>
      <trkpt lat="44.50704" lon="5.67271">
        <ele>1014.81</ele>
        <time>2013-01-03T10:05:37Z</time>
      </trkpt>
      <trkpt lat="44.50704" lon="5.67272">
        <ele>1015.29</ele>
        <time>2013-01-03T10:05:58Z</time>
      </trkpt>
      <trkpt lat="44.50704" lon="5.67271">
        <ele>1014.33</ele>
        <time>2013-01-03T10:06:15Z</time>
      </trkpt>
      <trkpt lat="44.50704" lon="5.67271">
        <ele>1014.81</ele>
        <time>2013-01-03T10:06:30Z</time>
      </trkpt>
      <trkpt lat="44.50704" lon="5.67268">
        <ele>1014.33</ele>
        <time>2013-01-03T10:06:47Z</time>
      </trkpt>
      <trkpt lat="44.50707" lon="5.67269">
        <ele>1013.85</ele>
        <time>2013-01-03T10:07:11Z</time>
      </trkpt>
      <trkpt lat="44.50705" lon="5.67272">
        <ele>1013.85</ele>
        <time>2013-01-03T10:07:45Z</time>
      </trkpt>
      <trkpt lat="44.50705" lon="5.67271">
        <ele>1013.85</ele>
        <time>2013-01-03T10:08:18Z</time>
      </trkpt>
      <trkpt lat="44.50705" lon="5.67269">
        <ele>1013.85</ele>
        <time>2013-01-03T10:08:54Z</time>
      </trkpt>
      <trkpt lat="44.50706" lon="5.67267">
        <ele>1013.85</ele>
        <time>2013-01-03T10:09:24Z</time>
      </trkpt>
      <trkpt lat="44.50706" lon="5.67268">
        <ele>1013.85</ele>
        <time>2013-01-03T10:09:54Z</time>
      </trkpt>
      <trkpt lat="44.50704" lon="5.67269">
        <ele>1013.85</ele>
        <time>2013-01-03T10:10:20Z</time>
      </trkpt>
      <trkpt lat="44.50704" lon="5.67272">
        <ele>1014.81</ele>
        <time>2013-01-03T10:10:49Z</time>
      </trkpt>
      <trkpt lat="44.50707" lon="5.67272">
        <ele>1014.81</ele>
        <time>2013-01-03T10:11:20Z</time>
      </trkpt>
      <trkpt lat="44.50704" lon="5.67271">
        <ele>1014.81</ele>
        <time>2013-01-03T10:11:41Z</time>
      </trkpt>
      <trkpt lat="44.50705" lon="5.6727">
        <ele>1014.33</ele>
        <time>2013-01-03T10:11:57Z</time>
      </trkpt>
      <trkpt lat="44.50704" lon="5.67269">
        <ele>1014.33</ele>
        <time>2013-01-03T10:12:28Z</time>
      </trkpt>
      <trkpt lat="44.50703" lon="5.67269">
        <ele>1014.33</ele>
        <time>2013-01-03T10:12:56Z</time>
      </trkpt>
      <trkpt lat="44.50705" lon="5.67269">
        <ele>1014.33</ele>
        <time>2013-01-03T10:13:20Z</time>
      </trkpt>
      <trkpt lat="44.50705" lon="5.67269">
        <ele>1013.85</ele>
        <time>2013-01-03T10:13:45Z</time>
      </trkpt>
      <trkpt lat="44.50704" lon="5.67271">
        <ele>1013.85</ele>
        <time>2013-01-03T10:14:02Z</time>
      </trkpt>
      <trkpt lat="44.50704" lon="5.6727">
        <ele>1013.85</ele>
        <time>2013-01-03T10:14:26Z</time>
      </trkpt>
      <trkpt lat="44.50704" lon="5.67271">
        <ele>1013.37</ele>
        <time>2013-01-03T10:14:52Z</time>
      </trkpt>
      <trkpt lat="44.50703" lon="5.6727">
        <ele>1013.37</ele>
        <time>2013-01-03T10:15:18Z</time>
      </trkpt>
      <trkpt lat="44.50705" lon="5.67269">
        <ele>1013.37</ele>
        <time>2013-01-03T10:15:41Z</time>
      </trkpt>
      <trkpt lat="44.50705" lon="5.6727">
        <ele>1013.37</ele>
        <time>2013-01-03T10:16:12Z</time>
      </trkpt>
      <trkpt lat="44.50705" lon="5.6727">
        <ele>1012.89</ele>
        <time>2013-01-03T10:16:41Z</time>
      </trkpt>
      <trkpt lat="44.50704" lon="5.6727">
        <ele>1012.89</ele>
        <time>2013-01-03T10:17:11Z</time>
      </trkpt>
      <trkpt lat="44.50703" lon="5.67271">
        <ele>1012.89</ele>
        <time>2013-01-03T10:17:40Z</time>
      </trkpt>
      <trkpt lat="44.50703" lon="5.67269">
        <ele>1012.89</ele>
        <time>2013-01-03T10:18:12Z</time>
      </trkpt>
      <trkpt lat="44.50704" lon="5.67271">
        <ele>1012.41</ele>
        <time>2013-01-03T10:18:38Z</time>
      </trkpt>
      <trkpt lat="44.50704" lon="5.67271">
        <ele>1012.41</ele>
        <time>2013-01-03T10:19:02Z</time>
      </trkpt>
      <trkpt lat="44.50703" lon="5.67272">
        <ele>1012.41</ele>
        <time>2013-01-03T10:19:31Z</time>
      </trkpt>
      <trkpt lat="44.50704" lon="5.67272">
        <ele>1012.41</ele>
        <time>2013-01-03T10:20:00Z</time>
      </trkpt>
      <trkpt lat="44.50706" lon="5.67269">
        <ele>1012.41</ele>
        <time>2013-01-03T10:20:33Z</time>
      </trkpt>
      <trkpt lat="44.50705" lon="5.6727">
        <ele>1012.89</ele>
        <time>2013-01-03T10:20:56Z</time>
      </trkpt>
      <trkpt lat="44.50704" lon="5.67269">
        <ele>1012.41</ele>
        <time>2013-01-03T10:21:16Z</time>
      </trkpt>
      <trkpt lat="44.50703" lon="5.67271">
        <ele>1012.41</ele>
        <time>2013-01-03T10:21:34Z</time>
      </trkpt>
      <trkpt lat="44.50703" lon="5.67272">
        <ele>1012.41</ele>
        <time>2013-01-03T10:22:00Z</time>
      </trkpt>
      <trkpt lat="44.50703" lon="5.67272">
        <ele>1012.41</ele>
        <time>2013-01-03T10:22:23Z</time>
      </trkpt>
      <trkpt lat="44.50704" lon="5.6727">
        <ele>1012.41</ele>
        <time>2013-01-03T10:22:43Z</time>
      </trkpt>
      <trkpt lat="44.50704" lon="5.67268">
        <ele>1012.41</ele>
        <time>2013-01-03T10:23:00Z</time>
      </trkpt>
      <trkpt lat="44.50703" lon="5.67269">
        <ele>1012.41</ele>
        <time>2013-01-03T10:23:25Z</time>
      </trkpt>
      <trkpt lat="44.507" lon="5.67271">
        <ele>1012.89</ele>
        <time>2013-01-03T10:23:38Z</time>
      </trkpt>
      <trkpt lat="44.50692" lon="5.67277">
        <ele>1012.89</ele>
        <time>2013-01-03T10:23:50Z</time>
      </trkpt>
      <trkpt lat="44.5068" lon="5.67288">
        <ele>1012.89</ele>
        <time>2013-01-03T10:24:06Z</time>
      </trkpt>
      <trkpt lat="44.50671" lon="5.67302">
        <ele>1013.37</ele>
        <time>2013-01-03T10:24:22Z</time>
      </trkpt>
      <trkpt lat="44.5067" lon="5.67305">
        <ele>1013.37</ele>
        <time>2013-01-03T10:24:36Z</time>
      </trkpt>
      <trkpt lat="44.50668" lon="5.67305">
        <ele>1013.37</ele>
        <time>2013-01-03T10:24:51Z</time>
      </trkpt>
      <trkpt lat="44.50665" lon="5.67311">
        <ele>1012.89</ele>
        <time>2013-01-03T10:25:04Z</time>
      </trkpt>
      <trkpt lat="44.50663" lon="5.67314">
        <ele>1012.89</ele>
        <time>2013-01-03T10:25:17Z</time>
      </trkpt>
      <trkpt lat="44.50664" lon="5.67316">
        <ele>1012.89</ele>
        <time>2013-01-03T10:25:31Z</time>
      </trkpt>
      <trkpt lat="44.50656" lon="5.67329">
        <ele>1013.37</ele>
        <time>2013-01-03T10:25:47Z</time>
      </trkpt>
      <trkpt lat="44.50649" lon="5.6734">
        <ele>1014.81</ele>
        <time>2013-01-03T10:25:59Z</time>
      </trkpt>
      <trkpt lat="44.50641" lon="5.67358">
        <ele>1015.77</ele>
        <time>2013-01-03T10:26:14Z</time>
      </trkpt>
      <trkpt lat="44.50639" lon="5.67361">
        <ele>1016.25</ele>
        <time>2013-01-03T10:26:17Z</time>
      </trkpt>
      <trkpt lat="44.50637" lon="5.67363">
        <ele>1016.25</ele>
        <time>2013-01-03T10:26:19Z</time>
      </trkpt>
      <trkpt lat="44.50627" lon="5.67376">
        <ele>1017.69</ele>
        <time>2013-01-03T10:26:33Z</time>
      </trkpt>
      <trkpt lat="44.5062" lon="5.67387">
        <ele>1020.1</ele>
        <time>2013-01-03T10:26:48Z</time>
      </trkpt>
      <trkpt lat="44.50613" lon="5.674">
        <ele>1022.5</ele>
        <time>2013-01-03T10:27:03Z</time>
      </trkpt>
      <trkpt lat="44.50608" lon="5.67417">
        <ele>1024.9</ele>
        <time>2013-01-03T10:27:21Z</time>
      </trkpt>
      <trkpt lat="44.50601" lon="5.67429">
        <ele>1026.83</ele>
        <time>2013-01-03T10:27:36Z</time>
      </trkpt>
      <trkpt lat="44.50594" lon="5.6744">
        <ele>1028.27</ele>
        <time>2013-01-03T10:27:50Z</time>
      </trkpt>
      <trkpt lat="44.50588" lon="5.67451">
        <ele>1030.19</ele>
        <time>2013-01-03T10:28:05Z</time>
      </trkpt>
      <trkpt lat="44.50578" lon="5.67465">
        <ele>1032.59</ele>
        <time>2013-01-03T10:28:22Z</time>
      </trkpt>
      <trkpt lat="44.50572" lon="5.67473">
        <ele>1034.04</ele>
        <time>2013-01-03T10:28:32Z</time>
      </trkpt>
      <trkpt lat="44.50561" lon="5.67482">
        <ele>1035.96</ele>
        <time>2013-01-03T10:28:46Z</time>
      </trkpt>
      <trkpt lat="44.5055" lon="5.67497">
        <ele>1037.4</ele>
        <time>2013-01-03T10:29:02Z</time>
      </trkpt>
      <trkpt lat="44.50539" lon="5.67503">
        <ele>1039.32</ele>
        <time>2013-01-03T10:29:15Z</time>
      </trkpt>
      <trkpt lat="44.50526" lon="5.6751">
        <ele>1039.32</ele>
        <time>2013-01-03T10:29:32Z</time>
      </trkpt>
      <trkpt lat="44.50516" lon="5.67515">
        <ele>1039.32</ele>
        <time>2013-01-03T10:29:47Z</time>
      </trkpt>
      <trkpt lat="44.50502" lon="5.67521">
        <ele>1040.28</ele>
        <time>2013-01-03T10:30:05Z</time>
      </trkpt>
      <trkpt lat="44.50492" lon="5.67525">
        <ele>1040.76</ele>
        <time>2013-01-03T10:30:19Z</time>
      </trkpt>
      <trkpt lat="44.5048" lon="5.67529">
        <ele>1041.73</ele>
        <time>2013-01-03T10:30:33Z</time>
      </trkpt>
      <trkpt lat="44.50468" lon="5.67532">
        <ele>1042.21</ele>
        <time>2013-01-03T10:30:49Z</time>
      </trkpt>
      <trkpt lat="44.50459" lon="5.67535">
        <ele>1042.21</ele>
        <time>2013-01-03T10:31:03Z</time>
      </trkpt>
      <trkpt lat="44.50449" lon="5.67544">
        <ele>1042.69</ele>
        <time>2013-01-03T10:31:17Z</time>
      </trkpt>
      <trkpt lat="44.5044" lon="5.67557">
        <ele>1044.13</ele>
        <time>2013-01-03T10:31:35Z</time>
      </trkpt>
      <trkpt lat="44.50437" lon="5.67568">
        <ele>1043.65</ele>
        <time>2013-01-03T10:31:49Z</time>
      </trkpt>
      <trkpt lat="44.50432" lon="5.67575">
        <ele>1043.17</ele>
        <time>2013-01-03T10:32:03Z</time>
      </trkpt>
      <trkpt lat="44.50426" lon="5.67582">
        <ele>1042.21</ele>
        <time>2013-01-03T10:32:17Z</time>
      </trkpt>
      <trkpt lat="44.50419" lon="5.67587">
        <ele>1040.28</ele>
        <time>2013-01-03T10:32:33Z</time>
      </trkpt>
      <trkpt lat="44.50413" lon="5.67589">
        <ele>1038.84</ele>
        <time>2013-01-03T10:32:45Z</time>
      </trkpt>
      <trkpt lat="44.50406" lon="5.67595">
        <ele>1036.92</ele>
        <time>2013-01-03T10:32:59Z</time>
      </trkpt>
      <trkpt lat="44.50399" lon="5.676">
        <ele>1034.52</ele>
        <time>2013-01-03T10:33:11Z</time>
      </trkpt>
      <trkpt lat="44.50398" lon="5.67602">
        <ele>1034.52</ele>
        <time>2013-01-03T10:33:13Z</time>
      </trkpt>
      <trkpt lat="44.50392" lon="5.67615">
        <ele>1031.63</ele>
        <time>2013-01-03T10:33:27Z</time>
      </trkpt>
      <trkpt lat="44.5039" lon="5.67627">
        <ele>1029.23</ele>
        <time>2013-01-03T10:33:42Z</time>
      </trkpt>
      <trkpt lat="44.50387" lon="5.6764">
        <ele>1027.31</ele>
        <time>2013-01-03T10:33:56Z</time>
      </trkpt>
      <trkpt lat="44.50383" lon="5.67653">
        <ele>1024.9</ele>
        <time>2013-01-03T10:34:06Z</time>
      </trkpt>
      <trkpt lat="44.50378" lon="5.67665">
        <ele>1021.54</ele>
        <time>2013-01-03T10:34:20Z</time>
      </trkpt>
      <trkpt lat="44.50373" lon="5.67677">
        <ele>1019.13</ele>
        <time>2013-01-03T10:34:35Z</time>
      </trkpt>
      <trkpt lat="44.50374" lon="5.67683">
        <ele>1018.65</ele>
        <time>2013-01-03T10:34:49Z</time>
      </trkpt>
      <trkpt lat="44.50372" lon="5.67687">
        <ele>1018.17</ele>
        <time>2013-01-03T10:34:58Z</time>
      </trkpt>
      <trkpt lat="44.5037" lon="5.67694">
        <ele>1017.21</ele>
        <time>2013-01-03T10:35:12Z</time>
      </trkpt>
      <trkpt lat="44.50368" lon="5.67699">
        <ele>1015.77</ele>
        <time>2013-01-03T10:35:26Z</time>
      </trkpt>
      <trkpt lat="44.50367" lon="5.67706">
        <ele>1014.33</ele>
        <time>2013-01-03T10:35:38Z</time>
      </trkpt>
      <trkpt lat="44.50365" lon="5.67719">
        <ele>1012.41</ele>
        <time>2013-01-03T10:35:55Z</time>
      </trkpt>
      <trkpt lat="44.50365" lon="5.67727">
        <ele>1010.96</ele>
        <time>2013-01-03T10:36:10Z</time>
      </trkpt>
      <trkpt lat="44.50374" lon="5.67737">
        <ele>1008.08</ele>
        <time>2013-01-03T10:36:26Z</time>
      </trkpt>
      <trkpt lat="44.50381" lon="5.67742">
        <ele>1007.6</ele>
        <time>2013-01-03T10:36:35Z</time>
      </trkpt>
      <trkpt lat="44.50385" lon="5.67744">
        <ele>1007.6</ele>
        <time>2013-01-03T10:36:46Z</time>
      </trkpt>
      <trkpt lat="44.50393" lon="5.67751">
        <ele>1006.16</ele>
        <time>2013-01-03T10:36:59Z</time>
      </trkpt>
      <trkpt lat="44.50406" lon="5.67757">
        <ele>1004.23</ele>
        <time>2013-01-03T10:37:15Z</time>
      </trkpt>
      <trkpt lat="44.50412" lon="5.67765">
        <ele>1002.31</ele>
        <time>2013-01-03T10:37:29Z</time>
      </trkpt>
      <trkpt lat="44.50402" lon="5.67769">
        <ele>999.91</ele>
        <time>2013-01-03T10:37:43Z</time>
      </trkpt>
      <trkpt lat="44.50397" lon="5.67778">
        <ele>997.51</ele>
        <time>2013-01-03T10:37:58Z</time>
      </trkpt>
      <trkpt lat="44.50395" lon="5.6779">
        <ele>994.14</ele>
        <time>2013-01-03T10:38:11Z</time>
      </trkpt>
      <trkpt lat="44.50396" lon="5.67802">
        <ele>992.7</ele>
        <time>2013-01-03T10:38:24Z</time>
      </trkpt>
      <trkpt lat="44.50396" lon="5.67813">
        <ele>991.74</ele>
        <time>2013-01-03T10:38:36Z</time>
      </trkpt>
      <trkpt lat="44.50396" lon="5.67832">
        <ele>990.3</ele>
        <time>2013-01-03T10:38:52Z</time>
      </trkpt>
      <trkpt lat="44.50393" lon="5.67849">
        <ele>988.85</ele>
        <time>2013-01-03T10:39:06Z</time>
      </trkpt>
      <trkpt lat="44.50389" lon="5.67864">
        <ele>987.89</ele>
        <time>2013-01-03T10:39:19Z</time>
      </trkpt>
      <trkpt lat="44.50385" lon="5.67876">
        <ele>986.93</ele>
        <time>2013-01-03T10:39:34Z</time>
      </trkpt>
      <trkpt lat="44.50382" lon="5.6788">
        <ele>985.97</ele>
        <time>2013-01-03T10:39:40Z</time>
      </trkpt>
      <trkpt lat="44.50377" lon="5.67894">
        <ele>985.01</ele>
        <time>2013-01-03T10:39:55Z</time>
      </trkpt>
      <trkpt lat="44.50378" lon="5.67894">
        <ele>985.01</ele>
        <time>2013-01-03T10:40:14Z</time>
      </trkpt>
      <trkpt lat="44.50376" lon="5.67898">
        <ele>985.01</ele>
        <time>2013-01-03T10:40:30Z</time>
      </trkpt>
      <trkpt lat="44.50375" lon="5.679">
        <ele>985.01</ele>
        <time>2013-01-03T10:40:49Z</time>
      </trkpt>
      <trkpt lat="44.50374" lon="5.67902">
        <ele>985.01</ele>
        <time>2013-01-03T10:41:12Z</time>
      </trkpt>
      <trkpt lat="44.50373" lon="5.67903">
        <ele>984.53</ele>
        <time>2013-01-03T10:41:31Z</time>
      </trkpt>
      <trkpt lat="44.50376" lon="5.67902">
        <ele>984.53</ele>
        <time>2013-01-03T10:42:00Z</time>
      </trkpt>
      <trkpt lat="44.50376" lon="5.67903">
        <ele>985.01</ele>
        <time>2013-01-03T10:42:23Z</time>
      </trkpt>
      <trkpt lat="44.50376" lon="5.67904">
        <ele>985.01</ele>
        <time>2013-01-03T10:42:48Z</time>
      </trkpt>
      <trkpt lat="44.50376" lon="5.679">
        <ele>985.01</ele>
        <time>2013-01-03T10:43:12Z</time>
      </trkpt>
      <trkpt lat="44.50375" lon="5.67901">
        <ele>984.53</ele>
        <time>2013-01-03T10:43:30Z</time>
      </trkpt>
      <trkpt lat="44.50375" lon="5.679">
        <ele>985.01</ele>
        <time>2013-01-03T10:43:45Z</time>
      </trkpt>
      <trkpt lat="44.50372" lon="5.67915">
        <ele>984.05</ele>
        <time>2013-01-03T10:44:01Z</time>
      </trkpt>
      <trkpt lat="44.50364" lon="5.67926">
        <ele>982.6</ele>
        <time>2013-01-03T10:44:16Z</time>
      </trkpt>
      <trkpt lat="44.50352" lon="5.67945">
        <ele>981.16</ele>
        <time>2013-01-03T10:44:34Z</time>
      </trkpt>
      <trkpt lat="44.50345" lon="5.6797">
        <ele>979.24</ele>
        <time>2013-01-03T10:44:53Z</time>
      </trkpt>
      <trkpt lat="44.5034" lon="5.67991">
        <ele>976.84</ele>
        <time>2013-01-03T10:45:10Z</time>
      </trkpt>
      <trkpt lat="44.50338" lon="5.68">
        <ele>975.88</ele>
        <time>2013-01-03T10:45:17Z</time>
      </trkpt>
      <trkpt lat="44.50349" lon="5.6801">
        <ele>973.95</ele>
        <time>2013-01-03T10:45:30Z</time>
      </trkpt>
      <trkpt lat="44.50357" lon="5.68018">
        <ele>972.51</ele>
        <time>2013-01-03T10:45:40Z</time>
      </trkpt>
      <trkpt lat="44.50358" lon="5.6802">
        <ele>972.51</ele>
        <time>2013-01-03T10:45:42Z</time>
      </trkpt>
      <trkpt lat="44.50357" lon="5.68049">
        <ele>971.55</ele>
        <time>2013-01-03T10:46:02Z</time>
      </trkpt>
      <trkpt lat="44.50356" lon="5.68074">
        <ele>971.07</ele>
        <time>2013-01-03T10:46:19Z</time>
      </trkpt>
      <trkpt lat="44.50352" lon="5.68102">
        <ele>971.07</ele>
        <time>2013-01-03T10:46:38Z</time>
      </trkpt>
      <trkpt lat="44.5035" lon="5.68126">
        <ele>972.03</ele>
        <time>2013-01-03T10:46:55Z</time>
      </trkpt>
      <trkpt lat="44.50353" lon="5.68147">
        <ele>973.47</ele>
        <time>2013-01-03T10:47:10Z</time>
      </trkpt>
      <trkpt lat="44.50362" lon="5.68171">
        <ele>972.51</ele>
        <time>2013-01-03T10:47:29Z</time>
      </trkpt>
      <trkpt lat="44.50374" lon="5.6819">
        <ele>971.07</ele>
        <time>2013-01-03T10:47:46Z</time>
      </trkpt>
      <trkpt lat="44.50389" lon="5.68206">
        <ele>969.63</ele>
        <time>2013-01-03T10:48:04Z</time>
      </trkpt>
      <trkpt lat="44.50405" lon="5.68216">
        <ele>968.67</ele>
        <time>2013-01-03T10:48:20Z</time>
      </trkpt>
      <trkpt lat="44.50419" lon="5.6823">
        <ele>968.18</ele>
        <time>2013-01-03T10:48:37Z</time>
      </trkpt>
      <trkpt lat="44.5043" lon="5.68246">
        <ele>969.63</ele>
        <time>2013-01-03T10:48:54Z</time>
      </trkpt>
      <trkpt lat="44.50433" lon="5.68247">
        <ele>970.11</ele>
        <time>2013-01-03T10:48:56Z</time>
      </trkpt>
      <trkpt lat="44.50448" lon="5.68252">
        <ele>969.63</ele>
        <time>2013-01-03T10:49:12Z</time>
      </trkpt>
      <trkpt lat="44.50463" lon="5.68256">
        <ele>969.63</ele>
        <time>2013-01-03T10:49:29Z</time>
      </trkpt>
      <trkpt lat="44.5048" lon="5.68257">
        <ele>970.59</ele>
        <time>2013-01-03T10:49:47Z</time>
      </trkpt>
      <trkpt lat="44.50484" lon="5.6826">
        <ele>970.59</ele>
        <time>2013-01-03T10:49:51Z</time>
      </trkpt>
      <trkpt lat="44.5049" lon="5.68268">
        <ele>970.59</ele>
        <time>2013-01-03T10:50:00Z</time>
      </trkpt>
      <trkpt lat="44.50493" lon="5.68269">
        <ele>971.07</ele>
        <time>2013-01-03T10:50:03Z</time>
      </trkpt>
      <trkpt lat="44.50504" lon="5.68272">
        <ele>972.51</ele>
        <time>2013-01-03T10:50:16Z</time>
      </trkpt>
      <trkpt lat="44.50506" lon="5.68278">
        <ele>971.55</ele>
        <time>2013-01-03T10:50:28Z</time>
      </trkpt>
      <trkpt lat="44.50512" lon="5.68283">
        <ele>971.07</ele>
        <time>2013-01-03T10:50:36Z</time>
      </trkpt>
      <trkpt lat="44.50515" lon="5.68289">
        <ele>971.07</ele>
        <time>2013-01-03T10:50:42Z</time>
      </trkpt>
      <trkpt lat="44.50523" lon="5.68308">
        <ele>969.63</ele>
        <time>2013-01-03T10:50:59Z</time>
      </trkpt>
      <trkpt lat="44.50527" lon="5.68314">
        <ele>969.15</ele>
        <time>2013-01-03T10:51:06Z</time>
      </trkpt>
      <trkpt lat="44.50536" lon="5.68319">
        <ele>968.67</ele>
        <time>2013-01-03T10:51:18Z</time>
      </trkpt>
      <trkpt lat="44.50547" lon="5.68334">
        <ele>967.7</ele>
        <time>2013-01-03T10:51:36Z</time>
      </trkpt>
      <trkpt lat="44.50551" lon="5.68338">
        <ele>967.7</ele>
        <time>2013-01-03T10:51:43Z</time>
      </trkpt>
      <trkpt lat="44.50553" lon="5.68339">
        <ele>967.7</ele>
        <time>2013-01-03T10:51:46Z</time>
      </trkpt>
      <trkpt lat="44.50554" lon="5.68342">
        <ele>968.18</ele>
        <time>2013-01-03T10:51:49Z</time>
      </trkpt>
      <trkpt lat="44.50559" lon="5.68364">
        <ele>966.26</ele>
        <time>2013-01-03T10:52:06Z</time>
      </trkpt>
      <trkpt lat="44.50568" lon="5.68373">
        <ele>964.82</ele>
        <time>2013-01-03T10:52:16Z</time>
      </trkpt>
      <trkpt lat="44.50566" lon="5.68381">
        <ele>964.34</ele>
        <time>2013-01-03T10:52:22Z</time>
      </trkpt>
      <trkpt lat="44.50562" lon="5.68391">
        <ele>962.42</ele>
        <time>2013-01-03T10:52:37Z</time>
      </trkpt>
      <trkpt lat="44.5056" lon="5.68405">
        <ele>960.98</ele>
        <time>2013-01-03T10:52:51Z</time>
      </trkpt>
      <trkpt lat="44.5056" lon="5.68427">
        <ele>957.61</ele>
        <time>2013-01-03T10:53:07Z</time>
      </trkpt>
      <trkpt lat="44.50564" lon="5.6844">
        <ele>955.69</ele>
        <time>2013-01-03T10:53:17Z</time>
      </trkpt>
      <trkpt lat="44.50574" lon="5.68456">
        <ele>952.32</ele>
        <time>2013-01-03T10:53:34Z</time>
      </trkpt>
      <trkpt lat="44.50585" lon="5.68467">
        <ele>949.44</ele>
        <time>2013-01-03T10:53:49Z</time>
      </trkpt>
      <trkpt lat="44.50593" lon="5.68477">
        <ele>948</ele>
        <time>2013-01-03T10:54:04Z</time>
      </trkpt>
      <trkpt lat="44.50597" lon="5.68493">
        <ele>948</ele>
        <time>2013-01-03T10:54:18Z</time>
      </trkpt>
      <trkpt lat="44.50594" lon="5.68513">
        <ele>946.07</ele>
        <time>2013-01-03T10:54:33Z</time>
      </trkpt>
      <trkpt lat="44.50589" lon="5.68534">
        <ele>943.19</ele>
        <time>2013-01-03T10:54:48Z</time>
      </trkpt>
      <trkpt lat="44.50593" lon="5.6855">
        <ele>939.83</ele>
        <time>2013-01-03T10:55:02Z</time>
      </trkpt>
      <trkpt lat="44.50596" lon="5.68554">
        <ele>938.86</ele>
        <time>2013-01-03T10:55:06Z</time>
      </trkpt>
      <trkpt lat="44.5061" lon="5.68557">
        <ele>935.98</ele>
        <time>2013-01-03T10:55:22Z</time>
      </trkpt>
      <trkpt lat="44.50616" lon="5.68556">
        <ele>934.54</ele>
        <time>2013-01-03T10:55:29Z</time>
      </trkpt>
      <trkpt lat="44.50631" lon="5.68548">
        <ele>933.1</ele>
        <time>2013-01-03T10:55:44Z</time>
      </trkpt>
      <trkpt lat="44.50637" lon="5.68551">
        <ele>932.62</ele>
        <time>2013-01-03T10:55:50Z</time>
      </trkpt>
      <trkpt lat="44.50642" lon="5.6856">
        <ele>932.14</ele>
        <time>2013-01-03T10:56:01Z</time>
      </trkpt>
      <trkpt lat="44.50649" lon="5.68587">
        <ele>930.21</ele>
        <time>2013-01-03T10:56:22Z</time>
      </trkpt>
      <trkpt lat="44.50655" lon="5.68608">
        <ele>926.85</ele>
        <time>2013-01-03T10:56:40Z</time>
      </trkpt>
      <trkpt lat="44.5066" lon="5.6862">
        <ele>924.45</ele>
        <time>2013-01-03T10:56:51Z</time>
      </trkpt>
      <trkpt lat="44.50661" lon="5.68623">
        <ele>923.96</ele>
        <time>2013-01-03T10:56:54Z</time>
      </trkpt>
      <trkpt lat="44.50661" lon="5.68627">
        <ele>923.48</ele>
        <time>2013-01-03T10:56:57Z</time>
      </trkpt>
      <trkpt lat="44.50657" lon="5.68644">
        <ele>920.6</ele>
        <time>2013-01-03T10:57:11Z</time>
      </trkpt>
      <trkpt lat="44.50654" lon="5.68652">
        <ele>919.16</ele>
        <time>2013-01-03T10:57:17Z</time>
      </trkpt>
      <trkpt lat="44.50649" lon="5.68658">
        <ele>917.72</ele>
        <time>2013-01-03T10:57:24Z</time>
      </trkpt>
      <trkpt lat="44.50646" lon="5.68667">
        <ele>916.75</ele>
        <time>2013-01-03T10:57:31Z</time>
      </trkpt>
      <trkpt lat="44.50645" lon="5.68679">
        <ele>915.31</ele>
        <time>2013-01-03T10:57:40Z</time>
      </trkpt>
      <trkpt lat="44.50648" lon="5.68684">
        <ele>914.35</ele>
        <time>2013-01-03T10:57:44Z</time>
      </trkpt>
      <trkpt lat="44.5065" lon="5.68686">
        <ele>913.87</ele>
        <time>2013-01-03T10:57:47Z</time>
      </trkpt>
      <trkpt lat="44.50666" lon="5.6868">
        <ele>910.99</ele>
        <time>2013-01-03T10:58:05Z</time>
      </trkpt>
      <trkpt lat="44.50681" lon="5.68669">
        <ele>908.1</ele>
        <time>2013-01-03T10:58:23Z</time>
      </trkpt>
      <trkpt lat="44.50694" lon="5.68665">
        <ele>905.7</ele>
        <time>2013-01-03T10:58:37Z</time>
      </trkpt>
      <trkpt lat="44.50707" lon="5.68664">
        <ele>902.33</ele>
        <time>2013-01-03T10:58:54Z</time>
      </trkpt>
      <trkpt lat="44.50718" lon="5.68667">
        <ele>899.93</ele>
        <time>2013-01-03T10:59:09Z</time>
      </trkpt>
      <trkpt lat="44.50724" lon="5.6867">
        <ele>898.49</ele>
        <time>2013-01-03T10:59:16Z</time>
      </trkpt>
      <trkpt lat="44.50735" lon="5.68677">
        <ele>896.09</ele>
        <time>2013-01-03T10:59:31Z</time>
      </trkpt>
      <trkpt lat="44.5074" lon="5.68688">
        <ele>892.72</ele>
        <time>2013-01-03T10:59:45Z</time>
      </trkpt>
      <trkpt lat="44.50744" lon="5.68701">
        <ele>889.84</ele>
        <time>2013-01-03T11:00:01Z</time>
      </trkpt>
      <trkpt lat="44.50746" lon="5.68713">
        <ele>886.47</ele>
        <time>2013-01-03T11:00:14Z</time>
      </trkpt>
      <trkpt lat="44.50748" lon="5.68718">
        <ele>885.51</ele>
        <time>2013-01-03T11:00:20Z</time>
      </trkpt>
      <trkpt lat="44.50753" lon="5.68733">
        <ele>881.67</ele>
        <time>2013-01-03T11:00:33Z</time>
      </trkpt>
      <trkpt lat="44.5076" lon="5.68748">
        <ele>878.78</ele>
        <time>2013-01-03T11:00:48Z</time>
      </trkpt>
      <trkpt lat="44.50769" lon="5.6876">
        <ele>875.42</ele>
        <time>2013-01-03T11:01:03Z</time>
      </trkpt>
      <trkpt lat="44.50779" lon="5.68771">
        <ele>872.05</ele>
        <time>2013-01-03T11:01:19Z</time>
      </trkpt>
      <trkpt lat="44.50788" lon="5.68782">
        <ele>869.17</ele>
        <time>2013-01-03T11:01:33Z</time>
      </trkpt>
      <trkpt lat="44.50797" lon="5.68792">
        <ele>865.8</ele>
        <time>2013-01-03T11:01:46Z</time>
      </trkpt>
      <trkpt lat="44.50807" lon="5.688">
        <ele>862.44</ele>
        <time>2013-01-03T11:01:58Z</time>
      </trkpt>
      <trkpt lat="44.50815" lon="5.68804">
        <ele>860.04</ele>
        <time>2013-01-03T11:02:07Z</time>
      </trkpt>
      <trkpt lat="44.50829" lon="5.68809">
        <ele>856.67</ele>
        <time>2013-01-03T11:02:21Z</time>
      </trkpt>
      <trkpt lat="44.50843" lon="5.68812">
        <ele>853.79</ele>
        <time>2013-01-03T11:02:35Z</time>
      </trkpt>
      <trkpt lat="44.50861" lon="5.68816">
        <ele>851.38</ele>
        <time>2013-01-03T11:02:52Z</time>
      </trkpt>
      <trkpt lat="44.50868" lon="5.6882">
        <ele>850.42</ele>
        <time>2013-01-03T11:02:59Z</time>
      </trkpt>
      <trkpt lat="44.50885" lon="5.6883">
        <ele>848.02</ele>
        <time>2013-01-03T11:03:16Z</time>
      </trkpt>
      <trkpt lat="44.50898" lon="5.68836">
        <ele>846.58</ele>
        <time>2013-01-03T11:03:31Z</time>
      </trkpt>
      <trkpt lat="44.50905" lon="5.68836">
        <ele>846.1</ele>
        <time>2013-01-03T11:03:47Z</time>
      </trkpt>
      <trkpt lat="44.50904" lon="5.68837">
        <ele>846.1</ele>
        <time>2013-01-03T11:04:12Z</time>
      </trkpt>
      <trkpt lat="44.50907" lon="5.68841">
        <ele>846.1</ele>
        <time>2013-01-03T11:04:32Z</time>
      </trkpt>
      <trkpt lat="44.50906" lon="5.6884">
        <ele>846.1</ele>
        <time>2013-01-03T11:04:51Z</time>
      </trkpt>
      <trkpt lat="44.50906" lon="5.68838">
        <ele>846.58</ele>
        <time>2013-01-03T11:05:17Z</time>
      </trkpt>
      <trkpt lat="44.50906" lon="5.68839">
        <ele>846.1</ele>
        <time>2013-01-03T11:05:36Z</time>
      </trkpt>
      <trkpt lat="44.50906" lon="5.6884">
        <ele>846.58</ele>
        <time>2013-01-03T11:05:51Z</time>
      </trkpt>
      <trkpt lat="44.50906" lon="5.68842">
        <ele>846.58</ele>
        <time>2013-01-03T11:06:12Z</time>
      </trkpt>
      <trkpt lat="44.50906" lon="5.68841">
        <ele>846.58</ele>
        <time>2013-01-03T11:06:32Z</time>
      </trkpt>
      <trkpt lat="44.5091" lon="5.68839">
        <ele>846.58</ele>
        <time>2013-01-03T11:06:57Z</time>
      </trkpt>
      <trkpt lat="44.50909" lon="5.68841">
        <ele>847.06</ele>
        <time>2013-01-03T11:07:16Z</time>
      </trkpt>
      <trkpt lat="44.50907" lon="5.68839">
        <ele>847.06</ele>
        <time>2013-01-03T11:07:38Z</time>
      </trkpt>
      <trkpt lat="44.50908" lon="5.6884">
        <ele>847.54</ele>
        <time>2013-01-03T11:08:00Z</time>
      </trkpt>
      <trkpt lat="44.50906" lon="5.68837">
        <ele>847.54</ele>
        <time>2013-01-03T11:08:28Z</time>
      </trkpt>
      <trkpt lat="44.50907" lon="5.6884">
        <ele>847.54</ele>
        <time>2013-01-03T11:08:55Z</time>
      </trkpt>
      <trkpt lat="44.50909" lon="5.68837">
        <ele>848.02</ele>
        <time>2013-01-03T11:09:18Z</time>
      </trkpt>
      <trkpt lat="44.50908" lon="5.68837">
        <ele>848.02</ele>
        <time>2013-01-03T11:09:39Z</time>
      </trkpt>
      <trkpt lat="44.5091" lon="5.68842">
        <ele>848.02</ele>
        <time>2013-01-03T11:09:57Z</time>
      </trkpt>
      <trkpt lat="44.50918" lon="5.6885">
        <ele>847.54</ele>
        <time>2013-01-03T11:10:11Z</time>
      </trkpt>
      <trkpt lat="44.50923" lon="5.68857">
        <ele>847.06</ele>
        <time>2013-01-03T11:10:24Z</time>
      </trkpt>
      <trkpt lat="44.50929" lon="5.68868">
        <ele>845.62</ele>
        <time>2013-01-03T11:10:39Z</time>
      </trkpt>
      <trkpt lat="44.50931" lon="5.68873">
        <ele>845.14</ele>
        <time>2013-01-03T11:10:44Z</time>
      </trkpt>
      <trkpt lat="44.50937" lon="5.68889">
        <ele>843.69</ele>
        <time>2013-01-03T11:11:00Z</time>
      </trkpt>
      <trkpt lat="44.50942" lon="5.68905">
        <ele>841.29</ele>
        <time>2013-01-03T11:11:16Z</time>
      </trkpt>
      <trkpt lat="44.50944" lon="5.68923">
        <ele>839.37</ele>
        <time>2013-01-03T11:11:31Z</time>
      </trkpt>
      <trkpt lat="44.5095" lon="5.68943">
        <ele>836.96</ele>
        <time>2013-01-03T11:11:48Z</time>
      </trkpt>
      <trkpt lat="44.50957" lon="5.68956">
        <ele>834.08</ele>
        <time>2013-01-03T11:12:04Z</time>
      </trkpt>
      <trkpt lat="44.50965" lon="5.6897">
        <ele>832.16</ele>
        <time>2013-01-03T11:12:18Z</time>
      </trkpt>
      <trkpt lat="44.50973" lon="5.68983">
        <ele>830.24</ele>
        <time>2013-01-03T11:12:34Z</time>
      </trkpt>
      <trkpt lat="44.50979" lon="5.68996">
        <ele>827.35</ele>
        <time>2013-01-03T11:12:50Z</time>
      </trkpt>
      <trkpt lat="44.5099" lon="5.69014">
        <ele>825.43</ele>
        <time>2013-01-03T11:13:05Z</time>
      </trkpt>
      <trkpt lat="44.50999" lon="5.6903">
        <ele>823.51</ele>
        <time>2013-01-03T11:13:19Z</time>
      </trkpt>
      <trkpt lat="44.51009" lon="5.69046">
        <ele>822.06</ele>
        <time>2013-01-03T11:13:33Z</time>
      </trkpt>
      <trkpt lat="44.51015" lon="5.69057">
        <ele>820.62</ele>
        <time>2013-01-03T11:13:43Z</time>
      </trkpt>
      <trkpt lat="44.51025" lon="5.69074">
        <ele>819.18</ele>
        <time>2013-01-03T11:13:58Z</time>
      </trkpt>
      <trkpt lat="44.51028" lon="5.69079">
        <ele>818.7</ele>
        <time>2013-01-03T11:14:02Z</time>
      </trkpt>
      <trkpt lat="44.51031" lon="5.69084">
        <ele>818.22</ele>
        <time>2013-01-03T11:14:06Z</time>
      </trkpt>
      <trkpt lat="44.51036" lon="5.69104">
        <ele>815.82</ele>
        <time>2013-01-03T11:14:23Z</time>
      </trkpt>
      <trkpt lat="44.51037" lon="5.69108">
        <ele>815.34</ele>
        <time>2013-01-03T11:14:26Z</time>
      </trkpt>
      <trkpt lat="44.51036" lon="5.69134">
        <ele>812.93</ele>
        <time>2013-01-03T11:14:44Z</time>
      </trkpt>
      <trkpt lat="44.51032" lon="5.69157">
        <ele>812.45</ele>
        <time>2013-01-03T11:14:59Z</time>
      </trkpt>
      <trkpt lat="44.51026" lon="5.69176">
        <ele>811.49</ele>
        <time>2013-01-03T11:15:12Z</time>
      </trkpt>
      <trkpt lat="44.51023" lon="5.69181">
        <ele>810.53</ele>
        <time>2013-01-03T11:15:17Z</time>
      </trkpt>
      <trkpt lat="44.51018" lon="5.69189">
        <ele>810.05</ele>
        <time>2013-01-03T11:15:24Z</time>
      </trkpt>
      <trkpt lat="44.51" lon="5.692">
        <ele>806.68</ele>
        <time>2013-01-03T11:15:41Z</time>
      </trkpt>
      <trkpt lat="44.50987" lon="5.69217">
        <ele>805.24</ele>
        <time>2013-01-03T11:15:57Z</time>
      </trkpt>
      <trkpt lat="44.50972" lon="5.69234">
        <ele>803.32</ele>
        <time>2013-01-03T11:16:13Z</time>
      </trkpt>
      <trkpt lat="44.50963" lon="5.69251">
        <ele>801.88</ele>
        <time>2013-01-03T11:16:29Z</time>
      </trkpt>
      <trkpt lat="44.50968" lon="5.6927">
        <ele>801.88</ele>
        <time>2013-01-03T11:16:42Z</time>
      </trkpt>
      <trkpt lat="44.50978" lon="5.69293">
        <ele>802.36</ele>
        <time>2013-01-03T11:16:59Z</time>
      </trkpt>
      <trkpt lat="44.50982" lon="5.69299">
        <ele>801.88</ele>
        <time>2013-01-03T11:17:04Z</time>
      </trkpt>
      <trkpt lat="44.50998" lon="5.69318">
        <ele>800.44</ele>
        <time>2013-01-03T11:17:23Z</time>
      </trkpt>
      <trkpt lat="44.51015" lon="5.69337">
        <ele>798.51</ele>
        <time>2013-01-03T11:17:42Z</time>
      </trkpt>
      <trkpt lat="44.51024" lon="5.69356">
        <ele>798.03</ele>
        <time>2013-01-03T11:17:57Z</time>
      </trkpt>
      <trkpt lat="44.51031" lon="5.6938">
        <ele>796.59</ele>
        <time>2013-01-03T11:18:14Z</time>
      </trkpt>
      <trkpt lat="44.51047" lon="5.69397">
        <ele>794.67</ele>
        <time>2013-01-03T11:18:32Z</time>
      </trkpt>
      <trkpt lat="44.51063" lon="5.6941">
        <ele>792.74</ele>
        <time>2013-01-03T11:18:49Z</time>
      </trkpt>
      <trkpt lat="44.51078" lon="5.69426">
        <ele>792.26</ele>
        <time>2013-01-03T11:19:06Z</time>
      </trkpt>
      <trkpt lat="44.5108" lon="5.69429">
        <ele>791.78</ele>
        <time>2013-01-03T11:19:09Z</time>
      </trkpt>
      <trkpt lat="44.51095" lon="5.69448">
        <ele>790.34</ele>
        <time>2013-01-03T11:19:27Z</time>
      </trkpt>
      <trkpt lat="44.51109" lon="5.69464">
        <ele>788.42</ele>
        <time>2013-01-03T11:19:44Z</time>
      </trkpt>
      <trkpt lat="44.51121" lon="5.6948">
        <ele>786.5</ele>
        <time>2013-01-03T11:19:59Z</time>
      </trkpt>
      <trkpt lat="44.51137" lon="5.695">
        <ele>784.57</ele>
        <time>2013-01-03T11:20:18Z</time>
      </trkpt>
      <trkpt lat="44.51138" lon="5.69502">
        <ele>784.09</ele>
        <time>2013-01-03T11:20:20Z</time>
      </trkpt>
      <trkpt lat="44.51152" lon="5.6952">
        <ele>782.17</ele>
        <time>2013-01-03T11:20:37Z</time>
      </trkpt>
      <trkpt lat="44.51163" lon="5.69539">
        <ele>780.73</ele>
        <time>2013-01-03T11:20:53Z</time>
      </trkpt>
      <trkpt lat="44.51173" lon="5.69561">
        <ele>777.84</ele>
        <time>2013-01-03T11:21:10Z</time>
      </trkpt>
      <trkpt lat="44.51193" lon="5.69564">
        <ele>776.88</ele>
        <time>2013-01-03T11:21:29Z</time>
      </trkpt>
      <trkpt lat="44.51216" lon="5.69548">
        <ele>775.92</ele>
        <time>2013-01-03T11:21:50Z</time>
      </trkpt>
      <trkpt lat="44.51233" lon="5.69529">
        <ele>774.48</ele>
        <time>2013-01-03T11:22:08Z</time>
      </trkpt>
      <trkpt lat="44.51246" lon="5.69507">
        <ele>772.56</ele>
        <time>2013-01-03T11:22:25Z</time>
      </trkpt>
      <trkpt lat="44.51262" lon="5.69495">
        <ele>772.08</ele>
        <time>2013-01-03T11:22:41Z</time>
      </trkpt>
      <trkpt lat="44.5128" lon="5.69504">
        <ele>771.11</ele>
        <time>2013-01-03T11:23:00Z</time>
      </trkpt>
      <trkpt lat="44.51301" lon="5.6951">
        <ele>770.15</ele>
        <time>2013-01-03T11:23:18Z</time>
      </trkpt>
      <trkpt lat="44.51313" lon="5.69513">
        <ele>769.67</ele>
        <time>2013-01-03T11:23:29Z</time>
      </trkpt>
      <trkpt lat="44.5133" lon="5.69495">
        <ele>769.67</ele>
        <time>2013-01-03T11:23:48Z</time>
      </trkpt>
      <trkpt lat="44.51344" lon="5.69478">
        <ele>770.15</ele>
        <time>2013-01-03T11:24:04Z</time>
      </trkpt>
      <trkpt lat="44.51357" lon="5.69462">
        <ele>770.63</ele>
        <time>2013-01-03T11:24:20Z</time>
      </trkpt>
      <trkpt lat="44.5137" lon="5.69445">
        <ele>771.11</ele>
        <time>2013-01-03T11:24:36Z</time>
      </trkpt>
      <trkpt lat="44.51386" lon="5.69425">
        <ele>771.11</ele>
        <time>2013-01-03T11:24:55Z</time>
      </trkpt>
      <trkpt lat="44.51401" lon="5.69404">
        <ele>771.6</ele>
        <time>2013-01-03T11:25:14Z</time>
      </trkpt>
      <trkpt lat="44.51415" lon="5.69382">
        <ele>772.08</ele>
        <time>2013-01-03T11:25:33Z</time>
      </trkpt>
      <trkpt lat="44.51427" lon="5.69365">
        <ele>772.56</ele>
        <time>2013-01-03T11:25:48Z</time>
      </trkpt>
      <trkpt lat="44.51442" lon="5.6935">
        <ele>772.56</ele>
        <time>2013-01-03T11:26:05Z</time>
      </trkpt>
      <trkpt lat="44.51461" lon="5.69338">
        <ele>773.04</ele>
        <time>2013-01-03T11:26:23Z</time>
      </trkpt>
      <trkpt lat="44.51477" lon="5.69325">
        <ele>773.04</ele>
        <time>2013-01-03T11:26:40Z</time>
      </trkpt>
      <trkpt lat="44.51482" lon="5.69322">
        <ele>773.04</ele>
        <time>2013-01-03T11:26:44Z</time>
      </trkpt>
      <trkpt lat="44.51502" lon="5.69312">
        <ele>773.04</ele>
        <time>2013-01-03T11:27:02Z</time>
      </trkpt>
      <trkpt lat="44.51523" lon="5.69302">
        <ele>773.04</ele>
        <time>2013-01-03T11:27:21Z</time>
      </trkpt>
      <trkpt lat="44.51546" lon="5.69293">
        <ele>773.04</ele>
        <time>2013-01-03T11:27:41Z</time>
      </trkpt>
      <trkpt lat="44.51568" lon="5.69286">
        <ele>773.52</ele>
        <time>2013-01-03T11:28:00Z</time>
      </trkpt>
      <trkpt lat="44.51586" lon="5.69282">
        <ele>773.04</ele>
        <time>2013-01-03T11:28:16Z</time>
      </trkpt>
      <trkpt lat="44.51609" lon="5.69274">
        <ele>773.04</ele>
        <time>2013-01-03T11:28:37Z</time>
      </trkpt>
      <trkpt lat="44.51628" lon="5.69268">
        <ele>773.04</ele>
        <time>2013-01-03T11:28:54Z</time>
      </trkpt>
      <trkpt lat="44.51651" lon="5.69257">
        <ele>773.04</ele>
        <time>2013-01-03T11:29:15Z</time>
      </trkpt>
      <trkpt lat="44.51659" lon="5.69251">
        <ele>773.04</ele>
        <time>2013-01-03T11:29:23Z</time>
      </trkpt>
      <trkpt lat="44.51681" lon="5.69235">
        <ele>773.04</ele>
        <time>2013-01-03T11:29:43Z</time>
      </trkpt>
      <trkpt lat="44.517" lon="5.69219">
        <ele>773.52</ele>
        <time>2013-01-03T11:30:03Z</time>
      </trkpt>
      <trkpt lat="44.51717" lon="5.69194">
        <ele>774</ele>
        <time>2013-01-03T11:30:23Z</time>
      </trkpt>
      <trkpt lat="44.51721" lon="5.69183">
        <ele>774</ele>
        <time>2013-01-03T11:30:31Z</time>
      </trkpt>
      <trkpt lat="44.51734" lon="5.69162">
        <ele>774.48</ele>
        <time>2013-01-03T11:30:47Z</time>
      </trkpt>
      <trkpt lat="44.51754" lon="5.69152">
        <ele>774.96</ele>
        <time>2013-01-03T11:31:07Z</time>
      </trkpt>
      <trkpt lat="44.51771" lon="5.69149">
        <ele>774.96</ele>
        <time>2013-01-03T11:31:23Z</time>
      </trkpt>
      <trkpt lat="44.51791" lon="5.69148">
        <ele>774.96</ele>
        <time>2013-01-03T11:31:41Z</time>
      </trkpt>
      <trkpt lat="44.518" lon="5.69148">
        <ele>775.44</ele>
        <time>2013-01-03T11:31:49Z</time>
      </trkpt>
      <trkpt lat="44.51812" lon="5.69149">
        <ele>775.44</ele>
        <time>2013-01-03T11:32:00Z</time>
      </trkpt>
      <trkpt lat="44.51815" lon="5.69152">
        <ele>775.44</ele>
        <time>2013-01-03T11:32:03Z</time>
      </trkpt>
      <trkpt lat="44.51817" lon="5.69178">
        <ele>774.48</ele>
        <time>2013-01-03T11:32:22Z</time>
      </trkpt>
      <trkpt lat="44.51821" lon="5.69205">
        <ele>773.52</ele>
        <time>2013-01-03T11:32:41Z</time>
      </trkpt>
      <trkpt lat="44.51821" lon="5.69207">
        <ele>773.04</ele>
        <time>2013-01-03T11:32:59Z</time>
      </trkpt>
      <trkpt lat="44.51823" lon="5.69214">
        <ele>773.04</ele>
        <time>2013-01-03T11:33:09Z</time>
      </trkpt>
      <trkpt lat="44.51824" lon="5.69238">
        <ele>772.56</ele>
        <time>2013-01-03T11:33:25Z</time>
      </trkpt>
      <trkpt lat="44.51826" lon="5.69264">
        <ele>771.6</ele>
        <time>2013-01-03T11:33:42Z</time>
      </trkpt>
      <trkpt lat="44.51826" lon="5.69297">
        <ele>770.63</ele>
        <time>2013-01-03T11:34:03Z</time>
      </trkpt>
      <trkpt lat="44.51828" lon="5.69328">
        <ele>769.67</ele>
        <time>2013-01-03T11:34:22Z</time>
      </trkpt>
      <trkpt lat="44.51828" lon="5.69358">
        <ele>768.71</ele>
        <time>2013-01-03T11:34:40Z</time>
      </trkpt>
      <trkpt lat="44.5183" lon="5.69386">
        <ele>768.71</ele>
        <time>2013-01-03T11:34:57Z</time>
      </trkpt>
      <trkpt lat="44.51837" lon="5.69414">
        <ele>768.71</ele>
        <time>2013-01-03T11:35:14Z</time>
      </trkpt>
      <trkpt lat="44.51847" lon="5.69442">
        <ele>768.71</ele>
        <time>2013-01-03T11:35:33Z</time>
      </trkpt>
      <trkpt lat="44.51858" lon="5.69471">
        <ele>768.71</ele>
        <time>2013-01-03T11:35:53Z</time>
      </trkpt>
      <trkpt lat="44.51867" lon="5.69492">
        <ele>769.19</ele>
        <time>2013-01-03T11:36:10Z</time>
      </trkpt>
      <trkpt lat="44.51869" lon="5.69495">
        <ele>769.19</ele>
        <time>2013-01-03T11:36:12Z</time>
      </trkpt>
      <trkpt lat="44.51884" lon="5.69514">
        <ele>769.19</ele>
        <time>2013-01-03T11:36:31Z</time>
      </trkpt>
      <trkpt lat="44.51895" lon="5.69516">
        <ele>768.71</ele>
        <time>2013-01-03T11:36:47Z</time>
      </trkpt>
      <trkpt lat="44.51898" lon="5.69515">
        <ele>768.23</ele>
        <time>2013-01-03T11:36:50Z</time>
      </trkpt>
      <trkpt lat="44.51914" lon="5.69502">
        <ele>767.75</ele>
        <time>2013-01-03T11:37:09Z</time>
      </trkpt>
      <trkpt lat="44.51916" lon="5.69503">
        <ele>768.23</ele>
        <time>2013-01-03T11:37:21Z</time>
      </trkpt>
      <trkpt lat="44.5192" lon="5.69504">
        <ele>768.23</ele>
        <time>2013-01-03T11:37:36Z</time>
      </trkpt>
      <trkpt lat="44.51921" lon="5.69501">
        <ele>767.75</ele>
        <time>2013-01-03T11:37:53Z</time>
      </trkpt>
      <trkpt lat="44.51922" lon="5.69498">
        <ele>768.23</ele>
        <time>2013-01-03T11:38:19Z</time>
      </trkpt>
      <trkpt lat="44.5192" lon="5.69499">
        <ele>768.23</ele>
        <time>2013-01-03T11:38:54Z</time>
      </trkpt>
      <trkpt lat="44.51919" lon="5.69498">
        <ele>768.23</ele>
        <time>2013-01-03T11:39:00Z</time>
      </trkpt>
    </trkseg>
  </trk>
</gpx>